Wetterdaten: Sonntag, 09.05.2021
Datum Zeit Temp. Aussen Temp. o. S. Temp +5cm Feuchte Auss Luftdruck Regen Sonnenschein Regendauer Solar Windben Empfang
09.05.2021 00:00 14,1 C 12,8 C 10,6 C 81 % 1008,9 hPa 0,0 l/m 0 min 0 min 0 W/m 3,2 km/h (1 Bft) 98,00 %
09.05.2021 00:02 14,1 C 12,8 C 10,6 C 81 % 1008,9 hPa 0,0 l/m 0 min 0 min 0 W/m 9,7 km/h (2 Bft) 97,83 %
09.05.2021 00:04 14,0 C 12,8 C 10,6 C 82 % 1008,8 hPa 0,0 l/m 0 min 0 min 0 W/m 9,7 km/h (2 Bft) 100,00 %
09.05.2021 00:08 14,0 C 12,8 C 10,6 C 82 % 1008,8 hPa 0,0 l/m 0 min 0 min 0 W/m 12,9 km/h (3 Bft) 100,00 %
09.05.2021 00:10 14,0 C 12,8 C 10,0 C 82 % 1008,9 hPa 0,0 l/m 0 min 0 min 0 W/m 6,4 km/h (2 Bft) 95,74 %
09.05.2021 00:12 14,0 C 12,8 C 10,6 C 82 % 1008,9 hPa 0,0 l/m 0 min 0 min 0 W/m 9,7 km/h (2 Bft) 96,30 %
09.05.2021 00:14 13,9 C 12,8 C 10,0 C 82 % 1008,9 hPa 0,0 l/m 0 min 0 min 0 W/m 12,9 km/h (3 Bft) 97,37 %
09.05.2021 00:16 13,9 C 12,8 C 10,0 C 82 % 1008,9 hPa 0,0 l/m 0 min 0 min 0 W/m 6,4 km/h (2 Bft) 97,92 %
09.05.2021 00:18 13,9 C 12,8 C 10,0 C 83 % 1008,8 hPa 0,0 l/m 0 min 0 min 0 W/m 9,7 km/h (2 Bft) 97,87 %
09.05.2021 00:20 13,9 C 12,8 C 10,6 C 83 % 1008,8 hPa 0,0 l/m 0 min 0 min 0 W/m 6,4 km/h (2 Bft) 98,15 %
09.05.2021 00:22 13,9 C 12,8 C 10,6 C 83 % 1008,8 hPa 0,0 l/m 0 min 0 min 0 W/m 9,7 km/h (2 Bft) 94,74 %
09.05.2021 00:24 13,8 C 12,8 C 10,6 C 83 % 1008,8 hPa 0,0 l/m 0 min 0 min 0 W/m 6,4 km/h (2 Bft) 97,96 %
09.05.2021 00:26 13,8 C 12,8 C 10,0 C 83 % 1008,8 hPa 0,0 l/m 0 min 0 min 0 W/m 3,2 km/h (1 Bft) 97,87 %
09.05.2021 00:28 13,8 C 12,8 C 10,0 C 83 % 1008,8 hPa 0,0 l/m 0 min 0 min 0 W/m 6,4 km/h (2 Bft) 98,11 %
09.05.2021 00:30 13,8 C 12,8 C 10,0 C 83 % 1008,8 hPa 0,0 l/m 0 min 0 min 0 W/m 12,9 km/h (3 Bft) 97,37 %
09.05.2021 00:32 13,8 C 12,8 C 10,0 C 83 % 1008,8 hPa 0,0 l/m 0 min 0 min 0 W/m 6,4 km/h (2 Bft) 95,92 %
09.05.2021 00:34 13,7 C 12,8 C 10,0 C 83 % 1008,8 hPa 0,0 l/m 0 min 0 min 0 W/m 6,4 km/h (2 Bft) 95,74 %
09.05.2021 00:36 13,7 C 12,8 C 10,0 C 83 % 1008,7 hPa 0,0 l/m 0 min 0 min 0 W/m 9,7 km/h (2 Bft) 94,44 %
09.05.2021 00:38 13,7 C 12,8 C 10,0 C 83 % 1008,8 hPa 0,0 l/m 0 min 0 min 0 W/m 9,7 km/h (2 Bft) 95,65 %
09.05.2021 00:40 13,6 C 12,8 C 10,0 C 83 % 1008,8 hPa 0,0 l/m 0 min 0 min 0 W/m 6,4 km/h (2 Bft) 91,49 %
09.05.2021 00:42 13,6 C 12,8 C 10,0 C 83 % 1008,8 hPa 0,0 l/m 0 min 0 min 0 W/m 12,9 km/h (3 Bft) 92,11 %
09.05.2021 00:44 13,6 C 12,8 C 10,0 C 83 % 1008,8 hPa 0,0 l/m 0 min 0 min 0 W/m 6,4 km/h (2 Bft) 91,84 %
09.05.2021 00:46 13,6 C 12,8 C 10,0 C 84 % 1008,8 hPa 0,0 l/m 0 min 0 min 0 W/m 6,4 km/h (2 Bft) 93,62 %
09.05.2021 00:48 13,6 C 12,8 C 10,0 C 84 % 1008,7 hPa 0,0 l/m 0 min 0 min 0 W/m 6,4 km/h (2 Bft) 92,59 %
09.05.2021 00:50 13,5 C 12,2 C 10,0 C 84 % 1008,7 hPa 0,0 l/m 0 min 0 min 0 W/m 6,4 km/h (2 Bft) 92,11 %
09.05.2021 00:52 13,5 C 12,2 C 10,0 C 84 % 1008,7 hPa 0,0 l/m 0 min 0 min 0 W/m 3,2 km/h (1 Bft) 95,83 %
09.05.2021 00:54 13,5 C 12,2 C 10,0 C 84 % 1008,7 hPa 0,0 l/m 0 min 0 min 0 W/m 9,7 km/h (2 Bft) 93,62 %
09.05.2021 00:56 13,5 C 12,2 C 10,0 C 84 % 1008,7 hPa 0,0 l/m 0 min 0 min 0 W/m 6,4 km/h (2 Bft) 94,44 %
09.05.2021 00:58 13,5 C 12,2 C 10,0 C 84 % 1008,7 hPa 0,0 l/m 0 min 0 min 0 W/m 12,9 km/h (3 Bft) 94,74 %
09.05.2021 01:00 13,5 C 12,2 C 10,0 C 84 % 1008,7 hPa 0,0 l/m 0 min 0 min 0 W/m 6,4 km/h (2 Bft) 95,92 %
09.05.2021 01:02 13,4 C 12,2 C 10,0 C 84 % 1008,7 hPa 0,0 l/m 0 min 0 min 0 W/m 6,4 km/h (2 Bft) 93,62 %
09.05.2021 01:04 13,4 C 12,2 C 10,0 C 84 % 1008,6 hPa 0,0 l/m 0 min 0 min 0 W/m 12,9 km/h (3 Bft) 96,23 %
09.05.2021 01:06 13,4 C 12,2 C 10,0 C 84 % 1008,7 hPa 0,0 l/m 0 min 0 min 0 W/m 12,9 km/h (3 Bft) 94,74 %
09.05.2021 01:08 13,4 C 12,2 C 10,0 C 84 % 1008,6 hPa 0,0 l/m 0 min 0 min 0 W/m 9,7 km/h (2 Bft) 95,92 %
09.05.2021 01:10 13,3 C 12,2 C 10,0 C 84 % 1008,6 hPa 0,0 l/m 0 min 0 min 0 W/m 6,4 km/h (2 Bft) 93,62 %
09.05.2021 01:12 13,3 C 12,2 C 10,0 C 85 % 1008,6 hPa 0,0 l/m 0 min 0 min 0 W/m 12,9 km/h (3 Bft) 93,62 %
09.05.2021 01:14 13,3 C 12,2 C 10,0 C 84 % 1008,6 hPa 0,0 l/m 0 min 0 min 0 W/m 12,9 km/h (3 Bft) 96,23 %
09.05.2021 01:16 13,3 C 12,2 C 10,0 C 85 % 1008,6 hPa 0,0 l/m 0 min 0 min 0 W/m 12,9 km/h (3 Bft) 97,37 %
09.05.2021 01:18 13,3 C 12,2 C 10,0 C 85 % 1008,5 hPa 0,0 l/m 0 min 0 min 0 W/m 12,9 km/h (3 Bft) 97,96 %
09.05.2021 01:20 13,2 C 12,2 C 10,0 C 85 % 1008,6 hPa 0,0 l/m 0 min 0 min 0 W/m 12,9 km/h (3 Bft) 95,74 %
09.05.2021 01:22 13,2 C 12,2 C 10,0 C 85 % 1008,6 hPa 0,0 l/m 0 min 0 min 0 W/m 6,4 km/h (2 Bft) 96,30 %
09.05.2021 01:24 13,1 C 12,2 C 10,0 C 85 % 1008,6 hPa 0,0 l/m 0 min 0 min 0 W/m 9,7 km/h (2 Bft) 97,37 %
09.05.2021 01:26 13,1 C 12,2 C 10,0 C 85 % 1008,6 hPa 0,0 l/m 0 min 0 min 0 W/m 9,7 km/h (2 Bft) 97,92 %
09.05.2021 01:28 13,1 C 12,2 C 10,0 C 85 % 1008,6 hPa 0,0 l/m 0 min 0 min 0 W/m 12,9 km/h (3 Bft) 95,74 %
09.05.2021 01:30 13,1 C 12,2 C 10,0 C 85 % 1008,6 hPa 0,0 l/m 0 min 0 min 0 W/m 12,9 km/h (3 Bft) 98,15 %
09.05.2021 01:32 13,1 C 12,2 C 10,0 C 85 % 1008,6 hPa 0,0 l/m 0 min 0 min 0 W/m 6,4 km/h (2 Bft) 100,00 %
09.05.2021 01:34 13,1 C 12,2 C 10,0 C 85 % 1008,5 hPa 0,0 l/m 0 min 0 min 0 W/m 16,1 km/h (3 Bft) 100,00 %
09.05.2021 01:36 13,1 C 12,2 C 10,0 C 85 % 1008,5 hPa 0,0 l/m 0 min 0 min 0 W/m 6,4 km/h (2 Bft) 97,87 %
09.05.2021 01:38 13,0 C 12,2 C 10,0 C 85 % 1008,5 hPa 0,0 l/m 0 min 0 min 0 W/m 6,4 km/h (2 Bft) 100,00 %
09.05.2021 01:40 13,0 C 12,2 C 10,0 C 85 % 1008,4 hPa 0,0 l/m 0 min 0 min 0 W/m 6,4 km/h (2 Bft) 100,00 %
09.05.2021 01:42 13,0 C 12,2 C 10,0 C 85 % 1008,4 hPa 0,0 l/m 0 min 0 min 0 W/m 6,4 km/h (2 Bft) 100,00 %
09.05.2021 01:44 13,0 C 12,2 C 9,5 C 85 % 1008,4 hPa 0,0 l/m 0 min 0 min 0 W/m 6,4 km/h (2 Bft) 100,00 %
09.05.2021 01:46 13,0 C 12,2 C 9,5 C 85 % 1008,4 hPa 0,0 l/m 0 min 0 min 0 W/m 12,9 km/h (3 Bft) 97,96 %
09.05.2021 01:48 12,9 C 11,7 C 9,5 C 85 % 1008,4 hPa 0,0 l/m 0 min 0 min 0 W/m 6,4 km/h (2 Bft) 100,00 %
09.05.2021 01:50 12,9 C 11,7 C 9,5 C 85 % 1008,4 hPa 0,0 l/m 0 min 0 min 0 W/m 6,4 km/h (2 Bft) 100,00 %
09.05.2021 01:52 12,9 C 11,7 C 9,5 C 85 % 1008,3 hPa 0,0 l/m 0 min 0 min 0 W/m 6,4 km/h (2 Bft) 97,37 %
09.05.2021 01:54 12,9 C 11,7 C 9,5 C 85 % 1008,4 hPa 0,0 l/m 0 min 0 min 0 W/m 9,7 km/h (2 Bft) 100,00 %
09.05.2021 01:56 12,9 C 11,7 C 9,5 C 85 % 1008,3 hPa 0,0 l/m 0 min 0 min 0 W/m 6,4 km/h (2 Bft) 100,00 %
09.05.2021 01:58 12,9 C 11,7 C 9,5 C 85 % 1008,3 hPa 0,0 l/m 0 min 0 min 0 W/m 9,7 km/h (2 Bft) 98,00 %
09.05.2021 02:00 12,8 C 11,7 C 9,5 C 86 % 1008,3 hPa 0,0 l/m 0 min 0 min 0 W/m 9,7 km/h (2 Bft) 100,00 %
09.05.2021 02:02 12,8 C 11,7 C 9,5 C 86 % 1008,3 hPa 0,0 l/m 0 min 0 min 0 W/m 6,4 km/h (2 Bft) 100,00 %
09.05.2021 02:04 12,8 C 11,7 C 9,5 C 86 % 1008,3 hPa 0,0 l/m 0 min 0 min 0 W/m 6,4 km/h (2 Bft) 97,67 %
09.05.2021 02:06 12,8 C 11,7 C 9,5 C 86 % 1008,2 hPa 0,0 l/m 0 min 0 min 0 W/m 12,9 km/h (3 Bft) 100,00 %
09.05.2021 02:08 12,8 C 11,7 C 9,5 C 86 % 1008,2 hPa 0,0 l/m 0 min 0 min 0 W/m 12,9 km/h (3 Bft) 100,00 %
09.05.2021 02:10 12,8 C 11,7 C 9,5 C 86 % 1008,2 hPa 0,0 l/m 0 min 0 min 0 W/m 6,4 km/h (2 Bft) 97,96 %
09.05.2021 02:12 12,7 C 11,7 C 9,5 C 86 % 1008,1 hPa 0,0 l/m 0 min 0 min 0 W/m 6,4 km/h (2 Bft) 100,00 %
09.05.2021 02:14 12,7 C 11,7 C 9,5 C 86 % 1008,1 hPa 0,0 l/m 0 min 0 min 0 W/m 6,4 km/h (2 Bft) 100,00 %
09.05.2021 02:16 12,6 C 11,7 C 9,5 C 86 % 1008,1 hPa 0,0 l/m 0 min 0 min 0 W/m 6,4 km/h (2 Bft) 100,00 %
09.05.2021 02:18 12,6 C 11,7 C 9,5 C 86 % 1008,1 hPa 0,0 l/m 0 min 0 min 0 W/m 6,4 km/h (2 Bft) 100,00 %
09.05.2021 02:20 12,6 C 11,7 C 9,5 C 86 % 1008,1 hPa 0,0 l/m 0 min 0 min 0 W/m 6,4 km/h (2 Bft) 100,00 %
09.05.2021 02:22 12,6 C 11,7 C 9,5 C 86 % 1008,1 hPa 0,0 l/m 0 min 0 min 0 W/m 12,9 km/h (3 Bft) 100,00 %
09.05.2021 02:24 12,6 C 11,7 C 9,5 C 86 % 1008,1 hPa 0,0 l/m 0 min 0 min 0 W/m 6,4 km/h (2 Bft) 100,00 %
09.05.2021 02:26 12,5 C 11,7 C 9,5 C 86 % 1008,1 hPa 0,0 l/m 0 min 0 min 0 W/m 6,4 km/h (2 Bft) 100,00 %
09.05.2021 02:28 12,5 C 11,7 C 9,5 C 86 % 1008,1 hPa 0,0 l/m 0 min 0 min 0 W/m 12,9 km/h (3 Bft) 100,00 %
09.05.2021 02:30 12,5 C 11,1 C 9,5 C 86 % 1008,0 hPa 0,0 l/m 0 min 0 min 0 W/m 6,4 km/h (2 Bft) 100,00 %
09.05.2021 02:32 12,4 C 11,1 C 9,5 C 86 % 1008,0 hPa 0,0 l/m 0 min 0 min 0 W/m 6,4 km/h (2 Bft) 100,00 %
09.05.2021 02:34 12,4 C 11,1 C 9,5 C 86 % 1008,0 hPa 0,0 l/m 0 min 0 min 0 W/m 12,9 km/h (3 Bft) 97,96 %
09.05.2021 02:36 12,4 C 11,1 C 9,5 C 87 % 1008,0 hPa 0,0 l/m 0 min 0 min 0 W/m 12,9 km/h (3 Bft) 100,00 %
09.05.2021 02:38 12,3 C 11,1 C 9,5 C 86 % 1008,0 hPa 0,0 l/m 0 min 0 min 0 W/m 12,9 km/h (3 Bft) 100,00 %
09.05.2021 02:40 12,3 C 11,1 C 9,5 C 87 % 1008,0 hPa 0,0 l/m 0 min 0 min 0 W/m 12,9 km/h (3 Bft) 100,00 %
09.05.2021 02:42 12,3 C 11,1 C 9,5 C 87 % 1008,0 hPa 0,0 l/m 0 min 0 min 0 W/m 6,4 km/h (2 Bft) 100,00 %
09.05.2021 02:44 12,2 C 11,1 C 8,9 C 87 % 1008,0 hPa 0,0 l/m 0 min 0 min 0 W/m 6,4 km/h (2 Bft) 100,00 %
09.05.2021 02:46 12,1 C 11,1 C 8,9 C 87 % 1008,0 hPa 0,0 l/m 0 min 0 min 0 W/m 6,4 km/h (2 Bft) 100,00 %
09.05.2021 02:48 12,1 C 11,1 C 8,9 C 87 % 1008,0 hPa 0,0 l/m 0 min 0 min 0 W/m 6,4 km/h (2 Bft) 100,00 %
09.05.2021 02:50 12,1 C 11,1 C 8,9 C 87 % 1008,0 hPa 0,0 l/m 0 min 0 min 0 W/m 12,9 km/h (3 Bft) 97,87 %
09.05.2021 02:52 12,0 C 11,1 C 8,9 C 87 % 1007,9 hPa 0,0 l/m 0 min 0 min 0 W/m 6,4 km/h (2 Bft) 100,00 %
09.05.2021 02:54 12,0 C 11,1 C 8,9 C 87 % 1007,9 hPa 0,0 l/m 0 min 0 min 0 W/m 12,9 km/h (3 Bft) 98,00 %
09.05.2021 02:56 12,0 C 11,1 C 8,9 C 87 % 1007,9 hPa 0,0 l/m 0 min 0 min 0 W/m 12,9 km/h (3 Bft) 100,00 %
09.05.2021 02:58 12,0 C 11,1 C 8,9 C 87 % 1007,8 hPa 0,0 l/m 0 min 0 min 0 W/m 12,9 km/h (3 Bft) 98,00 %
09.05.2021 03:00 11,9 C 11,1 C 8,9 C 87 % 1007,8 hPa 0,0 l/m 0 min 0 min 0 W/m 9,7 km/h (2 Bft) 100,00 %
09.05.2021 03:02 11,9 C 11,1 C 8,9 C 87 % 1007,8 hPa 0,0 l/m 0 min 0 min 0 W/m 6,4 km/h (2 Bft) 100,00 %
09.05.2021 03:04 11,9 C 11,1 C 8,9 C 88 % 1007,7 hPa 0,0 l/m 0 min 0 min 0 W/m 12,9 km/h (3 Bft) 100,00 %
09.05.2021 03:06 11,9 C 10,6 C 8,9 C 88 % 1007,8 hPa 0,0 l/m 0 min 0 min 0 W/m 6,4 km/h (2 Bft) 100,00 %
09.05.2021 03:08 11,8 C 10,6 C 8,9 C 88 % 1007,8 hPa 0,0 l/m 0 min 0 min 0 W/m 9,7 km/h (2 Bft) 96,30 %
09.05.2021 03:10 11,8 C 10,6 C 8,9 C 88 % 1007,7 hPa 0,0 l/m 0 min 0 min 0 W/m 9,7 km/h (2 Bft) 97,87 %
09.05.2021 03:12 11,8 C 10,6 C 8,9 C 88 % 1007,7 hPa 0,0 l/m 0 min 0 min 0 W/m 6,4 km/h (2 Bft) 97,96 %
09.05.2021 03:14 11,8 C 10,6 C 8,9 C 88 % 1007,7 hPa 0,0 l/m 0 min 0 min 0 W/m 3,2 km/h (1 Bft) 97,96 %
09.05.2021 03:16 11,7 C 10,6 C 8,9 C 88 % 1007,7 hPa 0,0 l/m 0 min 0 min 0 W/m 9,7 km/h (2 Bft) 97,14 %
09.05.2021 03:18 11,7 C 10,6 C 8,9 C 88 % 1007,7 hPa 0,0 l/m 0 min 0 min 0 W/m 16,1 km/h (3 Bft) 96,30 %
09.05.2021 03:20 11,6 C 10,6 C 8,9 C 88 % 1007,6 hPa 0,0 l/m 0 min 0 min 0 W/m 12,9 km/h (3 Bft) 98,00 %
09.05.2021 03:22 11,6 C 10,6 C 8,9 C 88 % 1007,6 hPa 0,0 l/m 0 min 0 min 0 W/m 12,9 km/h (3 Bft) 95,83 %
09.05.2021 03:24 11,6 C 10,6 C 8,9 C 88 % 1007,6 hPa 0,0 l/m 0 min 0 min 0 W/m 12,9 km/h (3 Bft) 97,87 %
09.05.2021 03:26 11,6 C 10,6 C 8,9 C 88 % 1007,6 hPa 0,0 l/m 0 min 0 min 0 W/m 12,9 km/h (3 Bft) 100,00 %
09.05.2021 03:28 11,5 C 10,6 C 8,9 C 89 % 1007,6 hPa 0,0 l/m 0 min 0 min 0 W/m 3,2 km/h (1 Bft) 94,44 %
09.05.2021 03:30 11,5 C 10,6 C 8,9 C 89 % 1007,5 hPa 0,0 l/m 0 min 0 min 0 W/m 19,3 km/h (3 Bft) 96,00 %
09.05.2021 03:32 11,5 C 10,6 C 8,9 C 89 % 1007,6 hPa 0,0 l/m 0 min 0 min 0 W/m 12,9 km/h (3 Bft) 97,92 %
09.05.2021 03:34 11,5 C 10,6 C 8,9 C 89 % 1007,5 hPa 0,0 l/m 0 min 0 min 0 W/m 12,9 km/h (3 Bft) 94,44 %
09.05.2021 03:36 11,4 C 10,6 C 8,9 C 89 % 1007,4 hPa 0,0 l/m 0 min 0 min 0 W/m 12,9 km/h (3 Bft) 98,11 %
09.05.2021 03:38 11,4 C 10,6 C 8,9 C 89 % 1007,5 hPa 0,0 l/m 0 min 0 min 0 W/m 12,9 km/h (3 Bft) 98,00 %
09.05.2021 03:40 11,4 C 10,6 C 8,9 C 89 % 1007,3 hPa 0,0 l/m 0 min 0 min 0 W/m 12,9 km/h (3 Bft) 95,74 %
09.05.2021 03:42 11,4 C 10,6 C 8,9 C 89 % 1007,3 hPa 0,0 l/m 0 min 0 min 0 W/m 9,7 km/h (2 Bft) 95,92 %
09.05.2021 03:44 11,4 C 10,6 C 8,9 C 89 % 1007,3 hPa 0,0 l/m 0 min 0 min 0 W/m 12,9 km/h (3 Bft) 95,65 %
09.05.2021 03:46 11,3 C 10,6 C 8,9 C 89 % 1007,3 hPa 0,0 l/m 0 min 0 min 0 W/m 6,4 km/h (2 Bft) 88,89 %
09.05.2021 03:48 11,3 C 10,6 C 8,9 C 89 % 1007,3 hPa 0,0 l/m 0 min 0 min 0 W/m 12,9 km/h (3 Bft) 96,23 %
09.05.2021 03:50 11,3 C 10,6 C 8,9 C 89 % 1007,2 hPa 0,0 l/m 0 min 0 min 0 W/m 9,7 km/h (2 Bft) 94,00 %
09.05.2021 03:52 11,3 C 10,6 C 8,9 C 89 % 1007,3 hPa 0,0 l/m 0 min 0 min 0 W/m 12,9 km/h (3 Bft) 97,96 %
09.05.2021 03:54 11,3 C 10,6 C 8,9 C 89 % 1007,2 hPa 0,0 l/m 0 min 0 min 0 W/m 6,4 km/h (2 Bft) 97,14 %
09.05.2021 03:56 11,3 C 10,6 C 8,9 C 89 % 1007,3 hPa 0,0 l/m 0 min 0 min 0 W/m 6,4 km/h (2 Bft) 95,74 %
09.05.2021 03:58 11,2 C 10,6 C 8,9 C 89 % 1007,2 hPa 0,0 l/m 0 min 0 min 0 W/m 12,9 km/h (3 Bft) 97,96 %
09.05.2021 04:00 11,2 C 10,6 C 8,9 C 89 % 1007,2 hPa 0,0 l/m 0 min 0 min 0 W/m 6,4 km/h (2 Bft) 98,15 %
09.05.2021 04:02 11,2 C 10,6 C 8,9 C 89 % 1007,1 hPa 0,0 l/m 0 min 0 min 0 W/m 12,9 km/h (3 Bft) 100,00 %
09.05.2021 04:04 11,1 C 10,6 C 8,9 C 89 % 1007,1 hPa 0,0 l/m 0 min 0 min 0 W/m 12,9 km/h (3 Bft) 97,67 %
09.05.2021 04:06 11,1 C 10,6 C 8,9 C 89 % 1007,1 hPa 0,0 l/m 0 min 0 min 0 W/m 6,4 km/h (2 Bft) 97,62 %
09.05.2021 04:08 11,1 C 10,6 C 8,9 C 89 % 1007,1 hPa 0,0 l/m 0 min 0 min 0 W/m 12,9 km/h (3 Bft) 95,74 %
09.05.2021 04:10 11,1 C 10,6 C 8,4 C 89 % 1007,0 hPa 0,0 l/m 0 min 0 min 0 W/m 9,7 km/h (2 Bft) 97,83 %
09.05.2021 04:12 11,1 C 10,6 C 8,9 C 89 % 1007,0 hPa 0,0 l/m 0 min 0 min 0 W/m 9,7 km/h (2 Bft) 96,00 %
09.05.2021 04:14 11,1 C 10,6 C 8,4 C 89 % 1007,0 hPa 0,0 l/m 0 min 0 min 0 W/m 16,1 km/h (3 Bft) 95,74 %
09.05.2021 04:16 11,1 C 10,6 C 8,9 C 89 % 1007,0 hPa 0,0 l/m 0 min 0 min 0 W/m 6,4 km/h (2 Bft) 93,88 %
09.05.2021 04:18 11,1 C 10,6 C 8,9 C 89 % 1007,0 hPa 0,0 l/m 0 min 0 min 0 W/m 12,9 km/h (3 Bft) 93,62 %
09.05.2021 04:20 11,1 C 10,6 C 8,9 C 89 % 1006,9 hPa 0,0 l/m 0 min 0 min 0 W/m 6,4 km/h (2 Bft) 95,24 %
09.05.2021 04:22 11,0 C 10,6 C 8,9 C 89 % 1006,9 hPa 0,0 l/m 0 min 0 min 0 W/m 6,4 km/h (2 Bft) 93,88 %
09.05.2021 04:24 11,1 C 10,6 C 8,9 C 89 % 1006,9 hPa 0,0 l/m 0 min 0 min 0 W/m 6,4 km/h (2 Bft) 93,88 %
09.05.2021 04:26 11,1 C 10,6 C 8,9 C 89 % 1006,9 hPa 0,0 l/m 0 min 0 min 0 W/m 9,7 km/h (2 Bft) 95,74 %
09.05.2021 04:28 11,0 C 10,6 C 8,9 C 89 % 1006,8 hPa 0,0 l/m 0 min 0 min 0 W/m 12,9 km/h (3 Bft) 95,24 %
09.05.2021 04:30 11,0 C 10,6 C 8,9 C 89 % 1006,8 hPa 0,0 l/m 0 min 0 min 0 W/m 16,1 km/h (3 Bft) 96,00 %
09.05.2021 04:32 11,1 C 10,6 C 8,9 C 89 % 1006,8 hPa 0,0 l/m 0 min 0 min 0 W/m 12,9 km/h (3 Bft) 97,92 %
09.05.2021 04:34 11,1 C 10,6 C 8,9 C 89 % 1006,8 hPa 0,0 l/m 0 min 0 min 0 W/m 16,1 km/h (3 Bft) 97,87 %
09.05.2021 04:36 11,1 C 10,6 C 8,9 C 89 % 1006,7 hPa 0,0 l/m 0 min 0 min 0 W/m 19,3 km/h (3 Bft) 95,24 %
09.05.2021 04:38 11,1 C 10,6 C 8,9 C 89 % 1006,7 hPa 0,0 l/m 0 min 0 min 0 W/m 6,4 km/h (2 Bft) 97,87 %
09.05.2021 04:40 11,1 C 10,6 C 8,9 C 89 % 1006,7 hPa 0,0 l/m 0 min 0 min 0 W/m 6,4 km/h (2 Bft) 97,87 %
09.05.2021 04:42 11,1 C 10,6 C 8,9 C 89 % 1006,7 hPa 0,0 l/m 0 min 0 min 0 W/m 6,4 km/h (2 Bft) 98,00 %
09.05.2021 04:44 11,1 C 10,6 C 8,9 C 89 % 1006,6 hPa 0,0 l/m 0 min 0 min 0 W/m 12,9 km/h (3 Bft) 93,48 %
09.05.2021 04:46 11,1 C 10,6 C 8,9 C 89 % 1006,6 hPa 0,0 l/m 0 min 0 min 0 W/m 16,1 km/h (3 Bft) 97,96 %
09.05.2021 04:48 11,1 C 10,6 C 8,9 C 89 % 1006,6 hPa 0,0 l/m 0 min 0 min 0 W/m 6,4 km/h (2 Bft) 97,87 %
09.05.2021 04:50 11,1 C 10,6 C 8,9 C 89 % 1006,6 hPa 0,0 l/m 0 min 0 min 0 W/m 6,4 km/h (2 Bft) 97,62 %
09.05.2021 04:52 11,1 C 10,6 C 8,9 C 89 % 1006,6 hPa 0,0 l/m 0 min 0 min 0 W/m 6,4 km/h (2 Bft) 96,00 %
09.05.2021 04:54 11,1 C 10,6 C 8,9 C 89 % 1006,7 hPa 0,0 l/m 0 min 0 min 0 W/m 16,1 km/h (3 Bft) 97,96 %
09.05.2021 04:56 11,1 C 10,6 C 8,9 C 89 % 1006,6 hPa 0,0 l/m 0 min 0 min 0 W/m 12,9 km/h (3 Bft) 97,83 %
09.05.2021 04:58 11,1 C 10,6 C 8,9 C 89 % 1006,6 hPa 0,0 l/m 0 min 0 min 0 W/m 12,9 km/h (3 Bft) 98,00 %
09.05.2021 05:00 11,1 C 10,6 C 8,9 C 89 % 1006,6 hPa 0,0 l/m 0 min 0 min 0 W/m 19,3 km/h (3 Bft) 97,14 %
09.05.2021 05:02 11,1 C 10,6 C 8,9 C 89 % 1006,6 hPa 0,0 l/m 0 min 0 min 0 W/m 12,9 km/h (3 Bft) 98,00 %
09.05.2021 05:04 11,1 C 10,6 C 8,9 C 89 % 1006,6 hPa 0,0 l/m 0 min 0 min 0 W/m 16,1 km/h (3 Bft) 98,00 %
09.05.2021 05:06 11,1 C 10,6 C 8,9 C 89 % 1006,6 hPa 0,0 l/m 0 min 0 min 0 W/m 9,7 km/h (2 Bft) 96,30 %
09.05.2021 05:08 11,2 C 10,6 C 8,9 C 88 % 1006,6 hPa 0,0 l/m 0 min 0 min 0 W/m 16,1 km/h (3 Bft) 100,00 %
09.05.2021 05:10 11,2 C 10,6 C 8,9 C 88 % 1006,6 hPa 0,0 l/m 0 min 0 min 0 W/m 6,4 km/h (2 Bft) 97,87 %
09.05.2021 05:12 11,2 C 10,6 C 8,9 C 88 % 1006,5 hPa 0,0 l/m 0 min 0 min 0 W/m 6,4 km/h (2 Bft) 95,92 %
09.05.2021 05:14 11,1 C 10,6 C 8,9 C 88 % 1006,5 hPa 0,0 l/m 0 min 0 min 0 W/m 9,7 km/h (2 Bft) 97,87 %
09.05.2021 05:16 11,1 C 10,6 C 8,9 C 88 % 1006,6 hPa 0,0 l/m 0 min 0 min 0 W/m 12,9 km/h (3 Bft) 93,62 %
09.05.2021 05:18 11,1 C 10,0 C 8,4 C 88 % 1006,6 hPa 0,0 l/m 0 min 0 min 0 W/m 6,4 km/h (2 Bft) 98,11 %
09.05.2021 05:20 11,1 C 10,0 C 8,4 C 88 % 1006,4 hPa 0,0 l/m 0 min 0 min 0 W/m 12,9 km/h (3 Bft) 97,37 %
09.05.2021 05:22 11,1 C 10,6 C 8,4 C 88 % 1006,4 hPa 0,0 l/m 0 min 0 min 0 W/m 19,3 km/h (3 Bft) 97,96 %
09.05.2021 05:24 11,1 C 10,6 C 8,4 C 88 % 1006,4 hPa 0,0 l/m 0 min 0 min 0 W/m 12,9 km/h (3 Bft) 97,87 %
09.05.2021 05:26 11,0 C 10,6 C 8,4 C 88 % 1006,4 hPa 0,0 l/m 0 min 0 min 0 W/m 12,9 km/h (3 Bft) 98,15 %
09.05.2021 05:28 11,0 C 10,6 C 8,4 C 89 % 1006,4 hPa 0,0 l/m 0 min 0 min 0 W/m 16,1 km/h (3 Bft) 94,74 %
09.05.2021 05:30 11,0 C 10,6 C 8,4 C 89 % 1006,4 hPa 0,0 l/m 0 min 0 min 0 W/m 12,9 km/h (3 Bft) 97,92 %
09.05.2021 05:32 11,0 C 10,6 C 8,4 C 89 % 1006,4 hPa 0,0 l/m 0 min 0 min 0 W/m 16,1 km/h (3 Bft) 97,87 %
09.05.2021 05:34 11,0 C 10,6 C 8,9 C 89 % 1006,4 hPa 0,0 l/m 0 min 0 min 0 W/m 16,1 km/h (3 Bft) 98,15 %
09.05.2021 05:36 11,0 C 10,6 C 8,4 C 89 % 1006,4 hPa 0,0 l/m 0 min 0 min 0 W/m 12,9 km/h (3 Bft) 93,62 %
09.05.2021 05:38 11,0 C 10,6 C 8,4 C 89 % 1006,5 hPa 0,0 l/m 0 min 0 min 0 W/m 12,9 km/h (3 Bft) 97,37 %
09.05.2021 05:40 11,0 C 10,6 C 8,9 C 89 % 1006,4 hPa 0,0 l/m 0 min 0 min 0 W/m 6,4 km/h (2 Bft) 97,87 %
09.05.2021 05:42 11,0 C 10,6 C 8,4 C 89 % 1006,5 hPa 0,0 l/m 0 min 0 min 0 W/m 12,9 km/h (3 Bft) 100,00 %
09.05.2021 05:44 11,0 C 10,6 C 8,4 C 89 % 1006,4 hPa 0,0 l/m 0 min 0 min 0 W/m 19,3 km/h (3 Bft) 95,74 %
09.05.2021 05:46 11,0 C 10,6 C 8,9 C 89 % 1006,5 hPa 0,0 l/m 0 min 0 min 0 W/m 12,9 km/h (3 Bft) 98,15 %
09.05.2021 05:48 11,0 C 10,6 C 8,4 C 89 % 1006,4 hPa 0,0 l/m 0 min 0 min 0 W/m 12,9 km/h (3 Bft) 97,37 %
09.05.2021 05:50 11,0 C 10,6 C 8,4 C 89 % 1006,5 hPa 0,0 l/m 0 min 0 min 0 W/m 6,4 km/h (2 Bft) 97,96 %
09.05.2021 05:52 11,0 C 10,6 C 8,9 C 89 % 1006,5 hPa 0,0 l/m 0 min 0 min 0 W/m 9,7 km/h (2 Bft) 97,87 %
09.05.2021 05:54 11,0 C 10,6 C 8,9 C 89 % 1006,6 hPa 0,0 l/m 0 min 0 min 0 W/m 12,9 km/h (3 Bft) 94,34 %
09.05.2021 05:56 11,0 C 10,6 C 8,9 C 89 % 1006,6 hPa 0,0 l/m 0 min 0 min 0 W/m 9,7 km/h (2 Bft) 97,37 %
09.05.2021 05:58 11,0 C 10,6 C 8,9 C 89 % 1006,6 hPa 0,0 l/m 0 min 0 min 0 W/m 19,3 km/h (3 Bft) 98,00 %
09.05.2021 06:00 11,0 C 10,6 C 8,9 C 89 % 1006,5 hPa 0,0 l/m 0 min 0 min 1 W/m 12,9 km/h (3 Bft) 97,96 %
09.05.2021 06:02 11,0 C 10,6 C 8,9 C 89 % 1006,5 hPa 0,0 l/m 0 min 0 min 5 W/m 9,7 km/h (2 Bft) 96,00 %
09.05.2021 06:04 11,0 C 10,6 C 8,9 C 89 % 1006,5 hPa 0,0 l/m 0 min 0 min 6 W/m 12,9 km/h (3 Bft) 97,37 %
09.05.2021 06:08 11,0 C 10,6 C 8,9 C 89 % 1006,3 hPa 0,0 l/m 0 min 0 min 8 W/m 19,3 km/h (3 Bft) 97,85 %
09.05.2021 06:10 11,0 C 10,6 C 8,9 C 89 % 1006,2 hPa 0,0 l/m 0 min 0 min 11 W/m 12,9 km/h (3 Bft) 96,36 %
09.05.2021 06:12 11,0 C 10,6 C 8,9 C 89 % 1006,2 hPa 0,0 l/m 0 min 0 min 13 W/m 22,5 km/h (4 Bft) 97,37 %
09.05.2021 06:14 11,0 C 10,6 C 8,9 C 89 % 1006,2 hPa 0,0 l/m 0 min 0 min 16 W/m 16,1 km/h (3 Bft) 91,67 %
09.05.2021 06:16 11,0 C 10,6 C 8,9 C 89 % 1006,2 hPa 0,0 l/m 0 min 0 min 18 W/m 12,9 km/h (3 Bft) 95,74 %
09.05.2021 06:18 11,0 C 10,6 C 8,9 C 89 % 1006,3 hPa 0,0 l/m 0 min 0 min 19 W/m 16,1 km/h (3 Bft) 97,83 %
09.05.2021 06:20 11,0 C 10,6 C 8,9 C 89 % 1006,3 hPa 0,0 l/m 0 min 0 min 22 W/m 12,9 km/h (3 Bft) 61,11 %
09.05.2021 06:22 11,0 C 10,6 C 8,9 C 89 % 1006,3 hPa 0,0 l/m 0 min 0 min 24 W/m 12,9 km/h (3 Bft) 97,37 %
09.05.2021 06:24 11,0 C 10,6 C 8,9 C 89 % 1006,2 hPa 0,0 l/m 0 min 0 min 25 W/m 9,7 km/h (2 Bft) 95,74 %
09.05.2021 06:26 11,0 C 10,6 C 8,9 C 89 % 1006,2 hPa 0,0 l/m 0 min 0 min 26 W/m 12,9 km/h (3 Bft) 98,18 %
09.05.2021 06:28 11,0 C 10,6 C 8,9 C 89 % 1006,1 hPa 0,0 l/m 0 min 0 min 29 W/m 9,7 km/h (2 Bft) 97,44 %
09.05.2021 06:30 11,0 C 10,6 C 8,9 C 89 % 1006,0 hPa 0,0 l/m 0 min 0 min 30 W/m 12,9 km/h (3 Bft) 97,83 %
09.05.2021 06:32 11,0 C 10,6 C 8,9 C 89 % 1006,0 hPa 0,0 l/m 0 min 0 min 32 W/m 19,3 km/h (3 Bft) 98,21 %
09.05.2021 06:34 11,0 C 10,6 C 8,9 C 89 % 1006,0 hPa 0,0 l/m 0 min 0 min 33 W/m 12,9 km/h (3 Bft) 97,37 %
09.05.2021 06:36 11,0 C 10,6 C 8,9 C 89 % 1006,1 hPa 0,0 l/m 0 min 0 min 37 W/m 12,9 km/h (3 Bft) 98,11 %
09.05.2021 06:38 11,0 C 10,6 C 8,9 C 89 % 1006,1 hPa 0,0 l/m 0 min 0 min 40 W/m 12,9 km/h (3 Bft) 97,96 %
09.05.2021 06:40 11,1 C 10,6 C 8,9 C 89 % 1006,1 hPa 0,0 l/m 0 min 0 min 43 W/m 16,1 km/h (3 Bft) 97,87 %
09.05.2021 06:42 11,1 C 10,6 C 8,9 C 89 % 1006,1 hPa 0,0 l/m 0 min 0 min 45 W/m 16,1 km/h (3 Bft) 94,74 %
09.05.2021 06:44 11,1 C 11,1 C 8,9 C 89 % 1006,0 hPa 0,0 l/m 0 min 0 min 50 W/m 12,9 km/h (3 Bft) 94,00 %
09.05.2021 06:46 11,2 C 11,1 C 8,9 C 88 % 1006,0 hPa 0,0 l/m 0 min 0 min 54 W/m 12,9 km/h (3 Bft) 98,11 %
09.05.2021 06:48 11,3 C 11,1 C 8,9 C 88 % 1006,0 hPa 0,0 l/m 0 min 0 min 58 W/m 22,5 km/h (4 Bft) 100,00 %
09.05.2021 06:50 11,3 C 11,1 C 9,5 C 88 % 1006,0 hPa 0,0 l/m 0 min 0 min 60 W/m 12,9 km/h (3 Bft) 98,00 %
09.05.2021 06:52 11,4 C 11,1 C 9,5 C 88 % 1006,0 hPa 0,0 l/m 0 min 0 min 62 W/m 19,3 km/h (3 Bft) 97,83 %
09.05.2021 06:54 11,4 C 11,1 C 9,5 C 88 % 1006,0 hPa 0,0 l/m 0 min 0 min 60 W/m 16,1 km/h (3 Bft) 97,73 %
09.05.2021 06:56 11,4 C 11,1 C 9,5 C 88 % 1006,0 hPa 0,0 l/m 0 min 0 min 61 W/m 12,9 km/h (3 Bft) 98,00 %
09.05.2021 06:58 11,5 C 11,7 C 9,5 C 88 % 1005,9 hPa 0,0 l/m 0 min 0 min 62 W/m 16,1 km/h (3 Bft) 98,00 %
09.05.2021 07:00 11,6 C 11,7 C 9,5 C 87 % 1006,0 hPa 0,0 l/m 0 min 0 min 62 W/m 22,5 km/h (4 Bft) 97,37 %
09.05.2021 07:02 11,6 C 11,7 C 9,5 C 87 % 1006,0 hPa 0,0 l/m 0 min 0 min 61 W/m 19,3 km/h (3 Bft) 94,00 %
09.05.2021 07:04 11,7 C 11,7 C 9,5 C 87 % 1006,0 hPa 0,0 l/m 0 min 0 min 59 W/m 9,7 km/h (2 Bft) 97,96 %
09.05.2021 07:06 11,8 C 11,7 C 9,5 C 87 % 1006,0 hPa 0,0 l/m 0 min 0 min 54 W/m 19,3 km/h (3 Bft) 97,87 %
09.05.2021 07:08 11,9 C 11,7 C 10,0 C 87 % 1006,0 hPa 0,0 l/m 0 min 0 min 48 W/m 16,1 km/h (3 Bft) 95,45 %
09.05.2021 07:10 11,9 C 11,7 C 10,0 C 87 % 1006,0 hPa 0,0 l/m 0 min 0 min 43 W/m 16,1 km/h (3 Bft) 97,87 %
09.05.2021 07:12 12,0 C 11,7 C 10,0 C 87 % 1006,0 hPa 0,0 l/m 0 min 0 min 39 W/m 12,9 km/h (3 Bft) 98,00 %
09.05.2021 07:14 12,0 C 11,7 C 10,0 C 86 % 1006,0 hPa 0,0 l/m 0 min 0 min 36 W/m 19,3 km/h (3 Bft) 97,87 %
09.05.2021 07:16 12,1 C 11,7 C 10,0 C 86 % 1006,0 hPa 0,0 l/m 0 min 0 min 35 W/m 19,3 km/h (3 Bft) 97,67 %
09.05.2021 07:18 12,1 C 11,7 C 10,0 C 86 % 1006,1 hPa 0,0 l/m 0 min 0 min 33 W/m 19,3 km/h (3 Bft) 96,00 %
09.05.2021 07:20 12,1 C 11,7 C 10,0 C 86 % 1006,0 hPa 0,0 l/m 0 min 0 min 33 W/m 12,9 km/h (3 Bft) 97,87 %
09.05.2021 07:22 12,2 C 11,7 C 10,0 C 86 % 1006,1 hPa 0,0 l/m 0 min 0 min 32 W/m 16,1 km/h (3 Bft) 97,73 %
09.05.2021 07:24 12,2 C 11,7 C 10,0 C 86 % 1006,1 hPa 0,0 l/m 0 min 0 min 32 W/m 16,1 km/h (3 Bft) 100,00 %
09.05.2021 07:26 12,3 C 11,7 C 10,0 C 85 % 1006,1 hPa 0,0 l/m 0 min 0 min 32 W/m 12,9 km/h (3 Bft) 100,00 %
09.05.2021 07:28 12,3 C 11,7 C 9,5 C 85 % 1006,0 hPa 0,0 l/m 0 min 0 min 32 W/m 12,9 km/h (3 Bft) 100,00 %
09.05.2021 07:30 12,3 C 11,7 C 9,5 C 85 % 1006,0 hPa 0,0 l/m 0 min 0 min 32 W/m 12,9 km/h (3 Bft) 100,00 %
09.05.2021 07:32 12,3 C 11,7 C 9,5 C 85 % 1006,0 hPa 0,0 l/m 0 min 0 min 32 W/m 19,3 km/h (3 Bft) 100,00 %
09.05.2021 07:34 12,3 C 11,7 C 9,5 C 85 % 1006,0 hPa 0,0 l/m 0 min 0 min 32 W/m 19,3 km/h (3 Bft) 100,00 %
09.05.2021 07:36 12,3 C 11,7 C 9,5 C 85 % 1006,0 hPa 0,0 l/m 0 min 0 min 33 W/m 22,5 km/h (4 Bft) 100,00 %
09.05.2021 07:38 12,3 C 11,7 C 10,0 C 85 % 1006,0 hPa 0,0 l/m 0 min 0 min 36 W/m 19,3 km/h (3 Bft) 100,00 %
09.05.2021 07:40 12,3 C 11,7 C 10,0 C 85 % 1006,0 hPa 0,0 l/m 0 min 0 min 38 W/m 16,1 km/h (3 Bft) 100,00 %
09.05.2021 07:42 12,4 C 12,2 C 10,0 C 85 % 1006,0 hPa 0,0 l/m 0 min 0 min 40 W/m 12,9 km/h (3 Bft) 100,00 %
09.05.2021 07:44 12,4 C 12,2 C 10,0 C 85 % 1006,0 hPa 0,0 l/m 0 min 0 min 42 W/m 6,4 km/h (2 Bft) 100,00 %
09.05.2021 07:46 12,4 C 12,2 C 10,0 C 85 % 1005,9 hPa 0,0 l/m 0 min 0 min 45 W/m 22,5 km/h (4 Bft) 98,11 %
09.05.2021 07:48 12,5 C 12,2 C 10,0 C 85 % 1005,9 hPa 0,0 l/m 0 min 0 min 47 W/m 16,1 km/h (3 Bft) 97,37 %
09.05.2021 07:50 12,5 C 12,2 C 10,0 C 85 % 1005,9 hPa 0,0 l/m 0 min 0 min 48 W/m 16,1 km/h (3 Bft) 100,00 %
09.05.2021 07:52 12,6 C 12,2 C 10,6 C 85 % 1005,9 hPa 0,0 l/m 0 min 0 min 47 W/m 12,9 km/h (3 Bft) 95,74 %
09.05.2021 07:54 12,7 C 12,8 C 10,6 C 84 % 1006,0 hPa 0,0 l/m 0 min 0 min 51 W/m 12,9 km/h (3 Bft) 97,87 %
09.05.2021 07:56 12,8 C 12,8 C 10,6 C 84 % 1005,9 hPa 0,0 l/m 0 min 0 min 53 W/m 16,1 km/h (3 Bft) 100,00 %
09.05.2021 07:58 12,8 C 12,8 C 10,6 C 84 % 1005,8 hPa 0,0 l/m 0 min 0 min 53 W/m 16,1 km/h (3 Bft) 97,37 %
09.05.2021 08:00 12,9 C 12,8 C 10,6 C 84 % 1005,9 hPa 0,0 l/m 0 min 0 min 53 W/m 16,1 km/h (3 Bft) 100,00 %
09.05.2021 08:02 13,0 C 12,8 C 10,6 C 84 % 1005,8 hPa 0,0 l/m 0 min 0 min 60 W/m 12,9 km/h (3 Bft) 100,00 %
09.05.2021 08:04 13,0 C 12,8 C 10,6 C 84 % 1005,8 hPa 0,0 l/m 0 min 0 min 91 W/m 12,9 km/h (3 Bft) 100,00 %
09.05.2021 08:06 13,1 C 12,8 C 10,6 C 84 % 1005,8 hPa 0,0 l/m 2 min 0 min 231 W/m 16,1 km/h (3 Bft) 100,00 %
09.05.2021 08:08 13,2 C 13,3 C 10,6 C 83 % 1005,7 hPa 0,0 l/m 2 min 0 min 278 W/m 16,1 km/h (3 Bft) 100,00 %
09.05.2021 08:10 13,3 C 13,3 C 11,1 C 83 % 1005,7 hPa 0,0 l/m 2 min 0 min 295 W/m 12,9 km/h (3 Bft) 100,00 %
09.05.2021 08:12 13,4 C 13,3 C 11,1 C 83 % 1005,7 hPa 0,0 l/m 2 min 0 min 311 W/m 12,9 km/h (3 Bft) 100,00 %
09.05.2021 08:14 13,5 C 13,3 C 11,1 C 83 % 1005,7 hPa 0,0 l/m 2 min 0 min 339 W/m 25,7 km/h (4 Bft) 100,00 %
09.05.2021 08:16 13,6 C 13,3 C 11,1 C 83 % 1005,7 hPa 0,0 l/m 2 min 0 min 350 W/m 22,5 km/h (4 Bft) 100,00 %
09.05.2021 08:18 13,8 C 13,9 C 11,1 C 82 % 1005,7 hPa 0,0 l/m 2 min 0 min 367 W/m 19,3 km/h (3 Bft) 100,00 %
09.05.2021 08:20 13,9 C 14,4 C 11,1 C 82 % 1005,7 hPa 0,0 l/m 2 min 0 min 354 W/m 19,3 km/h (3 Bft) 100,00 %
09.05.2021 08:22 14,1 C 14,4 C 11,7 C 82 % 1005,7 hPa 0,0 l/m 2 min 0 min 372 W/m 16,1 km/h (3 Bft) 98,15 %
09.05.2021 08:24 14,2 C 14,4 C 11,7 C 81 % 1005,7 hPa 0,0 l/m 2 min 0 min 390 W/m 16,1 km/h (3 Bft) 100,00 %
09.05.2021 08:26 14,3 C 14,4 C 11,7 C 81 % 1005,7 hPa 0,0 l/m 2 min 0 min 399 W/m 19,3 km/h (3 Bft) 100,00 %
09.05.2021 08:28 14,4 C 15,0 C 11,7 C 80 % 1005,7 hPa 0,0 l/m 2 min 0 min 342 W/m 16,1 km/h (3 Bft) 100,00 %
09.05.2021 08:30 14,6 C 15,0 C 11,7 C 80 % 1005,8 hPa 0,0 l/m 2 min 0 min 297 W/m 22,5 km/h (4 Bft) 98,15 %
09.05.2021 08:32 14,7 C 15,6 C 12,3 C 80 % 1005,7 hPa 0,0 l/m 2 min 0 min 328 W/m 19,3 km/h (3 Bft) 76,00 %
09.05.2021 08:34 14,9 C 16,1 C 12,3 C 79 % 1005,7 hPa 0,0 l/m 2 min 0 min 358 W/m 19,3 km/h (3 Bft) 72,97 %
09.05.2021 08:36 15,0 C 16,7 C 12,3 C 79 % 1005,7 hPa 0,0 l/m 2 min 0 min 392 W/m 29,0 km/h (5 Bft) 80,85 %
09.05.2021 08:38 15,1 C 17,2 C 12,3 C 79 % 1005,6 hPa 0,0 l/m 2 min 0 min 362 W/m 22,5 km/h (4 Bft) 66,04 %
09.05.2021 08:40 15,3 C 17,2 C 12,3 C 78 % 1005,7 hPa 0,0 l/m 2 min 0 min 356 W/m 25,7 km/h (4 Bft) 80,85 %
09.05.2021 08:42 15,4 C 17,2 C 12,3 C 78 % 1005,6 hPa 0,0 l/m 2 min 0 min 387 W/m 22,5 km/h (4 Bft) 82,00 %
09.05.2021 08:44 15,5 C 17,8 C 12,3 C 77 % 1005,5 hPa 0,0 l/m 2 min 0 min 432 W/m 25,7 km/h (4 Bft) 93,62 %
09.05.2021 08:46 15,6 C 18,3 C 12,8 C 77 % 1005,5 hPa 0,0 l/m 2 min 0 min 437 W/m 12,9 km/h (3 Bft) 100,00 %
09.05.2021 08:47 15,8 C 18,9 C 12,8 C 77 % 1005,5 hPa 0,0 l/m 1 min 0 min 442 W/m 25,7 km/h (4 Bft) 97,87 %
09.05.2021 08:50 15,9 C 18,9 C 12,8 C 76 % 1005,5 hPa 0,0 l/m 3 min 0 min 425 W/m 19,3 km/h (3 Bft) 91,30 %
09.05.2021 08:52 16,1 C 18,9 C 13,4 C 75 % 1005,4 hPa 0,0 l/m 2 min 0 min 416 W/m 19,3 km/h (3 Bft) 95,74 %
09.05.2021 08:54 16,2 C 19,4 C 13,4 C 75 % 1005,4 hPa 0,0 l/m 2 min 0 min 441 W/m 19,3 km/h (3 Bft) 97,87 %
09.05.2021 08:56 16,4 C 19,4 C 13,9 C 75 % 1005,4 hPa 0,0 l/m 2 min 0 min 435 W/m 35,4 km/h (5 Bft) 97,87 %
09.05.2021 08:58 16,5 C 20,0 C 14,5 C 74 % 1005,4 hPa 0,0 l/m 2 min 0 min 444 W/m 19,3 km/h (3 Bft) 95,74 %
09.05.2021 09:00 16,6 C 20,6 C 15,0 C 74 % 1005,4 hPa 0,0 l/m 2 min 0 min 424 W/m 12,9 km/h (3 Bft) 91,30 %
09.05.2021 09:02 16,7 C 21,1 C 15,6 C 74 % 1005,3 hPa 0,0 l/m 2 min 0 min 456 W/m 35,4 km/h (5 Bft) 94,00 %
09.05.2021 09:04 16,9 C 21,1 C 15,6 C 74 % 1005,2 hPa 0,0 l/m 2 min 0 min 448 W/m 16,1 km/h (3 Bft) 91,49 %
09.05.2021 09:06 17,0 C 21,1 C 16,1 C 73 % 1005,2 hPa 0,0 l/m 2 min 0 min 459 W/m 22,5 km/h (4 Bft) 95,74 %
09.05.2021 09:08 17,1 C 21,1 C 16,1 C 73 % 1005,1 hPa 0,0 l/m 2 min 0 min 471 W/m 29,0 km/h (5 Bft) 93,62 %
09.05.2021 09:10 17,2 C 21,1 C 16,7 C 72 % 1005,2 hPa 0,0 l/m 2 min 0 min 475 W/m 22,5 km/h (4 Bft) 95,74 %
09.05.2021 09:12 17,3 C 21,1 C 16,7 C 72 % 1005,1 hPa 0,0 l/m 2 min 0 min 475 W/m 19,3 km/h (3 Bft) 93,48 %
09.05.2021 09:14 17,4 C 21,1 C 16,7 C 72 % 1005,1 hPa 0,0 l/m 2 min 0 min 471 W/m 29,0 km/h (5 Bft) 95,74 %
09.05.2021 09:16 17,5 C 21,1 C 16,7 C 72 % 1005,1 hPa 0,0 l/m 2 min 0 min 439 W/m 16,1 km/h (3 Bft) 93,62 %
09.05.2021 09:18 17,6 C 21,1 C 16,7 C 71 % 1005,1 hPa 0,0 l/m 2 min 0 min 398 W/m 19,3 km/h (3 Bft) 93,62 %
09.05.2021 09:20 17,7 C 21,1 C 17,3 C 71 % 1005,2 hPa 0,0 l/m 2 min 0 min 509 W/m 25,7 km/h (4 Bft) 91,49 %
09.05.2021 09:22 17,8 C 21,1 C 17,3 C 71 % 1005,1 hPa 0,0 l/m 2 min 0 min 516 W/m 32,2 km/h (5 Bft) 91,49 %
09.05.2021 09:24 17,9 C 21,1 C 17,3 C 70 % 1005,1 hPa 0,0 l/m 2 min 0 min 524 W/m 25,7 km/h (4 Bft) 93,48 %
09.05.2021 09:26 18,0 C 20,6 C 17,8 C 70 % 1005,1 hPa 0,0 l/m 2 min 0 min 527 W/m 32,2 km/h (5 Bft) 95,74 %
09.05.2021 09:28 18,0 C 20,6 C 17,8 C 70 % 1005,1 hPa 0,0 l/m 2 min 0 min 508 W/m 35,4 km/h (5 Bft) 95,74 %
09.05.2021 09:30 18,1 C 20,6 C 17,8 C 70 % 1005,0 hPa 0,0 l/m 2 min 0 min 521 W/m 25,7 km/h (4 Bft) 89,36 %
09.05.2021 09:32 18,1 C 20,6 C 18,4 C 69 % 1005,1 hPa 0,0 l/m 2 min 0 min 533 W/m 25,7 km/h (4 Bft) 93,62 %
09.05.2021 09:34 18,3 C 20,6 C 18,4 C 69 % 1005,0 hPa 0,0 l/m 2 min 0 min 533 W/m 38,6 km/h (5 Bft) 95,74 %
09.05.2021 09:36 18,3 C 20,6 C 18,4 C 69 % 1005,0 hPa 0,0 l/m 2 min 0 min 548 W/m 25,7 km/h (4 Bft) 93,48 %
09.05.2021 09:38 18,4 C 21,1 C 18,9 C 69 % 1004,9 hPa 0,0 l/m 2 min 0 min 563 W/m 29,0 km/h (5 Bft) 93,62 %
09.05.2021 09:40 18,5 C 21,1 C 18,9 C 69 % 1005,0 hPa 0,0 l/m 2 min 0 min 569 W/m 25,7 km/h (4 Bft) 95,74 %
09.05.2021 09:42 18,5 C 21,1 C 18,9 C 69 % 1005,0 hPa 0,0 l/m 2 min 0 min 586 W/m 19,3 km/h (3 Bft) 93,62 %
09.05.2021 09:44 18,7 C 21,7 C 18,9 C 69 % 1005,0 hPa 0,0 l/m 2 min 0 min 632 W/m 32,2 km/h (5 Bft) 97,87 %
09.05.2021 09:46 18,8 C 22,2 C 20,0 C 69 % 1004,9 hPa 0,0 l/m 2 min 0 min 666 W/m 19,3 km/h (3 Bft) 93,48 %
09.05.2021 09:48 18,9 C 22,2 C 20,0 C 69 % 1004,9 hPa 0,0 l/m 2 min 0 min 679 W/m 22,5 km/h (4 Bft) 95,74 %
09.05.2021 09:50 19,0 C 21,1 C 19,5 C 68 % 1004,9 hPa 0,0 l/m 2 min 0 min 701 W/m 29,0 km/h (5 Bft) 95,74 %
09.05.2021 09:52 19,1 C 21,1 C 19,5 C 67 % 1004,8 hPa 0,0 l/m 2 min 0 min 633 W/m 29,0 km/h (5 Bft) 95,74 %
09.05.2021 09:54 19,2 C 21,1 C 20,0 C 67 % 1004,6 hPa 0,0 l/m 2 min 0 min 608 W/m 25,7 km/h (4 Bft) 97,87 %
09.05.2021 09:56 19,3 C 21,1 C 20,0 C 67 % 1004,6 hPa 0,0 l/m 2 min 0 min 592 W/m 25,7 km/h (4 Bft) 95,74 %
09.05.2021 09:58 19,3 C 22,2 C 20,6 C 67 % 1004,5 hPa 0,0 l/m 2 min 0 min 629 W/m 19,3 km/h (3 Bft) 97,83 %
09.05.2021 10:00 19,4 C 22,2 C 20,6 C 67 % 1004,5 hPa 0,0 l/m 2 min 0 min 595 W/m 25,7 km/h (4 Bft) 95,74 %
09.05.2021 10:02 19,5 C 22,8 C 21,1 C 67 % 1004,6 hPa 0,0 l/m 2 min 0 min 579 W/m 25,7 km/h (4 Bft) 97,87 %
09.05.2021 10:04 19,6 C 22,8 C 21,7 C 67 % 1004,6 hPa 0,0 l/m 2 min 0 min 693 W/m 29,0 km/h (5 Bft) 97,87 %
09.05.2021 10:06 19,8 C 22,8 C 21,7 C 67 % 1004,4 hPa 0,0 l/m 2 min 0 min 714 W/m 22,5 km/h (4 Bft) 97,83 %
09.05.2021 10:08 19,9 C 22,8 C 21,1 C 67 % 1004,3 hPa 0,0 l/m 2 min 0 min 708 W/m 22,5 km/h (4 Bft) 95,74 %
09.05.2021 10:10 20,0 C 22,8 C 21,7 C 67 % 1004,5 hPa 0,0 l/m 2 min 0 min 655 W/m 29,0 km/h (5 Bft) 98,15 %
09.05.2021 10:12 20,1 C 22,8 C 21,7 C 66 % 1004,4 hPa 0,0 l/m 2 min 0 min 699 W/m 38,6 km/h (5 Bft) 95,74 %
09.05.2021 10:14 20,2 C 22,8 C 21,7 C 65 % 1004,3 hPa 0,0 l/m 2 min 0 min 702 W/m 19,3 km/h (3 Bft) 97,87 %
09.05.2021 10:16 20,3 C 22,8 C 22,3 C 65 % 1004,3 hPa 0,0 l/m 2 min 0 min 665 W/m 25,7 km/h (4 Bft) 95,74 %
09.05.2021 10:18 20,3 C 22,8 C 22,3 C 65 % 1004,2 hPa 0,0 l/m 2 min 0 min 667 W/m 22,5 km/h (4 Bft) 97,87 %
09.05.2021 10:20 20,4 C 23,3 C 22,3 C 66 % 1004,2 hPa 0,0 l/m 2 min 0 min 665 W/m 19,3 km/h (3 Bft) 97,83 %
09.05.2021 10:22 20,5 C 23,3 C 22,3 C 66 % 1004,3 hPa 0,0 l/m 2 min 0 min 718 W/m 22,5 km/h (4 Bft) 95,74 %
09.05.2021 10:24 20,6 C 23,3 C 22,3 C 65 % 1004,2 hPa 0,0 l/m 2 min 0 min 696 W/m 25,7 km/h (4 Bft) 97,87 %
09.05.2021 10:26 20,6 C 23,3 C 22,3 C 65 % 1004,2 hPa 0,0 l/m 2 min 0 min 701 W/m 25,7 km/h (4 Bft) 95,74 %
09.05.2021 10:28 20,7 C 22,2 C 21,1 C 65 % 1004,2 hPa 0,0 l/m 2 min 0 min 668 W/m 22,5 km/h (4 Bft) 100,00 %
09.05.2021 10:30 20,7 C 21,7 C 20,0 C 65 % 1004,1 hPa 0,0 l/m 2 min 0 min 670 W/m 32,2 km/h (5 Bft) 100,00 %
09.05.2021 10:32 20,6 C 21,1 C 19,5 C 65 % 1004,1 hPa 0,0 l/m 2 min 0 min 414 W/m 29,0 km/h (5 Bft) 100,00 %
09.05.2021 10:34 20,6 C 21,1 C 19,5 C 65 % 1004,0 hPa 0,0 l/m 0 min 0 min 270 W/m 19,3 km/h (3 Bft) 100,00 %
09.05.2021 10:36 20,6 C 20,6 C 18,4 C 65 % 1004,0 hPa 0,0 l/m 0 min 0 min 175 W/m 22,5 km/h (4 Bft) 100,00 %
09.05.2021 10:38 20,5 C 20,0 C 18,4 C 66 % 1004,1 hPa 0,0 l/m 0 min 0 min 200 W/m 22,5 km/h (4 Bft) 95,74 %
09.05.2021 10:40 20,5 C 20,0 C 17,8 C 66 % 1004,1 hPa 0,0 l/m 0 min 0 min 203 W/m 16,1 km/h (3 Bft) 95,74 %
09.05.2021 10:42 20,5 C 20,0 C 18,4 C 67 % 1004,0 hPa 0,0 l/m 0 min 0 min 217 W/m 16,1 km/h (3 Bft) 95,74 %
09.05.2021 10:44 20,4 C 20,0 C 18,4 C 66 % 1004,0 hPa 0,0 l/m 2 min 0 min 353 W/m 22,5 km/h (4 Bft) 93,48 %
09.05.2021 10:46 20,4 C 20,6 C 18,4 C 66 % 1003,9 hPa 0,0 l/m 2 min 0 min 336 W/m 16,1 km/h (3 Bft) 85,11 %
09.05.2021 10:48 20,4 C 20,0 C 17,8 C 67 % 1003,8 hPa 0,0 l/m 0 min 0 min 247 W/m 19,3 km/h (3 Bft) 95,74 %
09.05.2021 10:50 20,4 C 20,6 C 18,9 C 67 % 1003,8 hPa 0,0 l/m 0 min 0 min 264 W/m 19,3 km/h (3 Bft) 97,87 %
09.05.2021 10:52 20,4 C 20,0 C 18,4 C 67 % 1003,8 hPa 0,0 l/m 0 min 0 min 211 W/m 19,3 km/h (3 Bft) 100,00 %
09.05.2021 10:54 20,4 C 20,0 C 17,8 C 66 % 1003,7 hPa 0,0 l/m 0 min 0 min 196 W/m 16,1 km/h (3 Bft) 100,00 %
09.05.2021 10:56 20,4 C 20,0 C 17,8 C 66 % 1003,7 hPa 0,0 l/m 0 min 0 min 210 W/m 25,7 km/h (4 Bft) 100,00 %
09.05.2021 10:58 20,4 C 20,0 C 17,8 C 66 % 1003,6 hPa 0,0 l/m 0 min 0 min 237 W/m 25,7 km/h (4 Bft) 100,00 %
09.05.2021 11:00 20,4 C 21,1 C 20,0 C 66 % 1003,6 hPa 0,0 l/m 2 min 0 min 434 W/m 22,5 km/h (4 Bft) 100,00 %
09.05.2021 11:02 20,5 C 21,7 C 21,1 C 67 % 1003,5 hPa 0,0 l/m 2 min 0 min 784 W/m 19,3 km/h (3 Bft) 100,00 %
09.05.2021 11:04 20,6 C 21,7 C 20,6 C 67 % 1003,5 hPa 0,0 l/m 2 min 0 min 753 W/m 19,3 km/h (3 Bft) 100,00 %
09.05.2021 11:06 20,7 C 21,7 C 20,0 C 66 % 1003,5 hPa 0,0 l/m 2 min 0 min 663 W/m 19,3 km/h (3 Bft) 97,83 %
09.05.2021 11:08 20,8 C 21,7 C 20,0 C 67 % 1003,5 hPa 0,0 l/m 2 min 0 min 384 W/m 19,3 km/h (3 Bft) 100,00 %
09.05.2021 11:10 20,9 C 21,7 C 19,5 C 66 % 1003,5 hPa 0,0 l/m 0 min 0 min 334 W/m 19,3 km/h (3 Bft) 100,00 %
09.05.2021 11:12 21,0 C 21,7 C 19,5 C 66 % 1003,6 hPa 0,0 l/m 0 min 0 min 331 W/m 22,5 km/h (4 Bft) 100,00 %
09.05.2021 11:14 21,0 C 21,7 C 19,5 C 66 % 1003,6 hPa 0,0 l/m 0 min 0 min 284 W/m 16,1 km/h (3 Bft) 97,87 %
09.05.2021 11:16 21,1 C 21,1 C 18,9 C 66 % 1003,5 hPa 0,0 l/m 0 min 0 min 240 W/m 19,3 km/h (3 Bft) 97,87 %
09.05.2021 11:18 21,1 C 21,7 C 18,9 C 66 % 1003,5 hPa 0,0 l/m 0 min 0 min 244 W/m 16,1 km/h (3 Bft) 97,83 %
09.05.2021 11:20 21,2 C 21,7 C 18,9 C 66 % 1003,5 hPa 0,0 l/m 0 min 0 min 325 W/m 19,3 km/h (3 Bft) 97,87 %
09.05.2021 11:22 21,1 C 21,1 C 18,4 C 65 % 1003,5 hPa 0,0 l/m 0 min 0 min 259 W/m 29,0 km/h (5 Bft) 100,00 %
09.05.2021 11:24 21,2 C 21,7 C 18,9 C 65 % 1003,4 hPa 0,0 l/m 0 min 0 min 316 W/m 19,3 km/h (3 Bft) 100,00 %
09.05.2021 11:26 21,3 C 22,2 C 19,5 C 66 % 1003,4 hPa 0,0 l/m 2 min 0 min 533 W/m 19,3 km/h (3 Bft) 100,00 %
09.05.2021 11:28 21,3 C 22,2 C 19,5 C 65 % 1003,3 hPa 0,0 l/m 2 min 0 min 639 W/m 29,0 km/h (5 Bft) 100,00 %
09.05.2021 11:30 21,4 C 22,2 C 19,5 C 65 % 1003,3 hPa 0,0 l/m 2 min 0 min 437 W/m 22,5 km/h (4 Bft) 100,00 %
09.05.2021 11:32 21,5 C 21,7 C 19,5 C 65 % 1003,3 hPa 0,0 l/m 0 min 0 min 297 W/m 32,2 km/h (5 Bft) 100,00 %
09.05.2021 11:34 21,5 C 21,7 C 18,9 C 65 % 1003,3 hPa 0,0 l/m 0 min 0 min 228 W/m 25,7 km/h (4 Bft) 100,00 %
09.05.2021 11:36 21,5 C 21,1 C 18,4 C 64 % 1003,3 hPa 0,0 l/m 0 min 0 min 202 W/m 22,5 km/h (4 Bft) 97,87 %
09.05.2021 11:38 21,6 C 21,1 C 18,4 C 64 % 1003,3 hPa 0,0 l/m 0 min 0 min 214 W/m 19,3 km/h (3 Bft) 100,00 %
09.05.2021 11:40 21,5 C 21,1 C 18,4 C 64 % 1003,2 hPa 0,0 l/m 0 min 0 min 259 W/m 25,7 km/h (4 Bft) 100,00 %
09.05.2021 11:42 21,5 C 21,1 C 18,4 C 64 % 1003,2 hPa 0,0 l/m 0 min 0 min 294 W/m 25,7 km/h (4 Bft) 100,00 %
09.05.2021 11:44 21,5 C 21,1 C 18,4 C 65 % 1003,2 hPa 0,0 l/m 0 min 0 min 341 W/m 22,5 km/h (4 Bft) 97,87 %
09.05.2021 11:46 21,5 C 21,1 C 18,4 C 64 % 1003,1 hPa 0,0 l/m 0 min 0 min 303 W/m 29,0 km/h (5 Bft) 95,74 %
09.05.2021 11:48 21,5 C 21,1 C 18,9 C 64 % 1003,1 hPa 0,0 l/m 0 min 0 min 316 W/m 22,5 km/h (4 Bft) 100,00 %
09.05.2021 11:50 21,5 C 21,7 C 18,9 C 65 % 1003,0 hPa 0,0 l/m 0 min 0 min 352 W/m 16,1 km/h (3 Bft) 91,30 %
09.05.2021 11:52 21,5 C 22,2 C 19,5 C 65 % 1003,0 hPa 0,0 l/m 2 min 0 min 456 W/m 19,3 km/h (3 Bft) 98,39 %
09.05.2021 11:54 21,6 C 22,2 C 20,0 C 64 % 1002,9 hPa 0,0 l/m 2 min 0 min 530 W/m 32,2 km/h (5 Bft) 95,74 %
09.05.2021 11:56 21,6 C 22,2 C 20,0 C 64 % 1002,9 hPa 0,0 l/m 2 min 0 min 490 W/m 22,5 km/h (4 Bft) 95,65 %
09.05.2021 11:58 21,8 C 23,3 C 21,1 C 64 % 1002,9 hPa 0,0 l/m 2 min 0 min 568 W/m 22,5 km/h (4 Bft) 95,74 %
09.05.2021 12:00 22,0 C 23,3 C 21,7 C 64 % 1002,9 hPa 0,0 l/m 2 min 0 min 827 W/m 22,5 km/h (4 Bft) 95,74 %
09.05.2021 12:02 22,1 C 23,9 C 22,8 C 64 % 1002,9 hPa 0,0 l/m 2 min 0 min 721 W/m 22,5 km/h (4 Bft) 95,74 %
09.05.2021 12:04 22,4 C 24,4 C 23,9 C 64 % 1002,9 hPa 0,0 l/m 2 min 0 min 878 W/m 22,5 km/h (4 Bft) 95,74 %
09.05.2021 12:08 22,8 C 25,0 C 25,6 C 62 % 1002,9 hPa 0,0 l/m 4 min 0 min 864 W/m 29,0 km/h (5 Bft) 95,70 %
09.05.2021 12:10 23,0 C 25,6 C 27,3 C 62 % 1002,9 hPa 0,0 l/m 2 min 0 min 854 W/m 19,3 km/h (3 Bft) 95,74 %
09.05.2021 12:12 23,3 C 26,1 C 27,8 C 62 % 1003,0 hPa 0,0 l/m 2 min 0 min 901 W/m 19,3 km/h (3 Bft) 93,62 %
09.05.2021 12:14 23,5 C 26,7 C 28,4 C 62 % 1002,9 hPa 0,0 l/m 2 min 0 min 902 W/m 38,6 km/h (5 Bft) 95,74 %
09.05.2021 12:16 23,7 C 26,1 C 27,8 C 61 % 1002,9 hPa 0,0 l/m 2 min 0 min 899 W/m 22,5 km/h (4 Bft) 95,74 %
09.05.2021 12:18 23,8 C 25,0 C 26,1 C 61 % 1002,9 hPa 0,0 l/m 2 min 0 min 796 W/m 25,7 km/h (4 Bft) 95,65 %
09.05.2021 12:20 23,9 C 24,4 C 23,9 C 60 % 1002,9 hPa 0,0 l/m 2 min 0 min 446 W/m 25,7 km/h (4 Bft) 95,74 %
09.05.2021 12:22 23,9 C 23,9 C 22,8 C 60 % 1002,8 hPa 0,0 l/m 0 min 0 min 387 W/m 22,5 km/h (4 Bft) 93,62 %
09.05.2021 12:24 23,8 C 23,9 C 22,3 C 60 % 1002,8 hPa 0,0 l/m 0 min 0 min 366 W/m 32,2 km/h (5 Bft) 95,74 %
09.05.2021 12:26 23,8 C 23,9 C 21,7 C 60 % 1002,7 hPa 0,0 l/m 2 min 0 min 405 W/m 22,5 km/h (4 Bft) 93,62 %
09.05.2021 12:28 23,7 C 23,9 C 21,7 C 61 % 1002,7 hPa 0,0 l/m 2 min 0 min 458 W/m 19,3 km/h (3 Bft) 97,87 %
09.05.2021 12:30 23,7 C 23,9 C 22,3 C 60 % 1002,7 hPa 0,0 l/m 2 min 0 min 465 W/m 22,5 km/h (4 Bft) 95,65 %
09.05.2021 12:32 23,8 C 24,4 C 22,8 C 60 % 1002,6 hPa 0,0 l/m 2 min 0 min 691 W/m 19,3 km/h (3 Bft) 93,62 %
09.05.2021 12:34 23,8 C 24,4 C 23,4 C 60 % 1002,5 hPa 0,0 l/m 2 min 0 min 644 W/m 35,4 km/h (5 Bft) 97,87 %
09.05.2021 12:36 23,9 C 25,6 C 25,0 C 61 % 1002,5 hPa 0,0 l/m 2 min 0 min 473 W/m 22,5 km/h (4 Bft) 97,87 %
09.05.2021 12:38 24,0 C 26,1 C 26,7 C 60 % 1002,5 hPa 0,0 l/m 2 min 0 min 937 W/m 25,7 km/h (4 Bft) 97,87 %
09.05.2021 12:40 24,1 C 26,1 C 26,7 C 59 % 1002,5 hPa 0,0 l/m 2 min 0 min 862 W/m 22,5 km/h (4 Bft) 97,87 %
09.05.2021 12:42 24,3 C 26,1 C 26,7 C 59 % 1002,5 hPa 0,0 l/m 2 min 0 min 729 W/m 25,7 km/h (4 Bft) 95,65 %
09.05.2021 12:44 24,4 C 26,1 C 26,7 C 59 % 1002,4 hPa 0,0 l/m 2 min 0 min 807 W/m 22,5 km/h (4 Bft) 97,87 %
09.05.2021 12:46 24,6 C 26,1 C 26,7 C 59 % 1002,3 hPa 0,0 l/m 2 min 0 min 790 W/m 25,7 km/h (4 Bft) 97,87 %
09.05.2021 12:48 24,6 C 25,6 C 26,1 C 58 % 1002,3 hPa 0,0 l/m 2 min 0 min 717 W/m 29,0 km/h (5 Bft) 97,87 %
09.05.2021 12:50 24,7 C 25,0 C 24,5 C 58 % 1002,3 hPa 0,0 l/m 2 min 0 min 415 W/m 29,0 km/h (5 Bft) 95,74 %
09.05.2021 12:52 24,7 C 25,0 C 23,9 C 58 % 1002,3 hPa 0,0 l/m 2 min 0 min 462 W/m 35,4 km/h (5 Bft) 95,74 %
09.05.2021 12:54 24,7 C 25,0 C 22,8 C 58 % 1002,3 hPa 0,0 l/m 2 min 0 min 442 W/m 32,2 km/h (5 Bft) 100,00 %
09.05.2021 12:56 24,7 C 25,0 C 23,4 C 58 % 1002,4 hPa 0,0 l/m 2 min 0 min 551 W/m 29,0 km/h (5 Bft) 97,87 %
09.05.2021 12:58 24,7 C 25,0 C 23,4 C 58 % 1002,3 hPa 0,0 l/m 2 min 0 min 525 W/m 32,2 km/h (5 Bft) 100,00 %
09.05.2021 13:00 24,7 C 25,6 C 24,5 C 58 % 1002,4 hPa 0,0 l/m 2 min 0 min 661 W/m 19,3 km/h (3 Bft) 93,62 %
09.05.2021 13:02 24,8 C 25,6 C 24,5 C 58 % 1002,3 hPa 0,0 l/m 2 min 0 min 616 W/m 29,0 km/h (5 Bft) 100,00 %
09.05.2021 13:04 24,9 C 25,6 C 24,5 C 58 % 1002,3 hPa 0,0 l/m 2 min 0 min 576 W/m 22,5 km/h (4 Bft) 97,87 %
09.05.2021 13:06 24,9 C 25,6 C 25,0 C 58 % 1002,4 hPa 0,0 l/m 2 min 0 min 534 W/m 32,2 km/h (5 Bft) 97,83 %
09.05.2021 13:08 25,0 C 25,6 C 24,5 C 58 % 1002,4 hPa 0,0 l/m 2 min 0 min 509 W/m 32,2 km/h (5 Bft) 100,00 %
09.05.2021 13:10 25,0 C 25,6 C 24,5 C 58 % 1002,4 hPa 0,0 l/m 2 min 0 min 546 W/m 41,8 km/h (6 Bft) 95,74 %
09.05.2021 13:12 25,1 C 25,6 C 25,0 C 58 % 1002,2 hPa 0,0 l/m 2 min 0 min 589 W/m 29,0 km/h (5 Bft) 100,00 %
09.05.2021 13:14 25,1 C 25,6 C 25,6 C 58 % 1002,2 hPa 0,0 l/m 2 min 0 min 698 W/m 29,0 km/h (5 Bft) 100,00 %
09.05.2021 13:16 25,1 C 25,6 C 26,7 C 58 % 1002,3 hPa 0,0 l/m 2 min 0 min 662 W/m 35,4 km/h (5 Bft) 100,00 %
09.05.2021 13:18 25,2 C 26,1 C 27,3 C 58 % 1002,2 hPa 0,0 l/m 2 min 0 min 721 W/m 29,0 km/h (5 Bft) 95,74 %
09.05.2021 13:20 25,3 C 26,1 C 28,9 C 57 % 1002,2 hPa 0,0 l/m 2 min 0 min 923 W/m 32,2 km/h (5 Bft) 97,87 %
09.05.2021 13:22 25,4 C 26,7 C 29,5 C 57 % 1002,2 hPa 0,0 l/m 2 min 0 min 870 W/m 22,5 km/h (4 Bft) 97,87 %
09.05.2021 13:24 25,5 C 26,7 C 29,5 C 57 % 1002,2 hPa 0,0 l/m 2 min 0 min 888 W/m 35,4 km/h (5 Bft) 97,87 %
09.05.2021 13:26 25,6 C 26,7 C 30,0 C 57 % 1002,2 hPa 0,0 l/m 2 min 0 min 887 W/m 35,4 km/h (5 Bft) 97,87 %
09.05.2021 13:28 25,7 C 27,2 C 31,1 C 57 % 1002,3 hPa 0,0 l/m 2 min 0 min 914 W/m 22,5 km/h (4 Bft) 97,83 %
09.05.2021 13:30 25,9 C 27,2 C 31,1 C 56 % 1002,2 hPa 0,0 l/m 2 min 0 min 920 W/m 25,7 km/h (4 Bft) 97,87 %
09.05.2021 13:32 26,0 C 27,2 C 31,7 C 56 % 1002,3 hPa 0,0 l/m 2 min 0 min 889 W/m 22,5 km/h (4 Bft) 97,87 %
09.05.2021 13:34 26,1 C 27,8 C 31,7 C 57 % 1002,2 hPa 0,0 l/m 2 min 0 min 896 W/m 19,3 km/h (3 Bft) 95,74 %
09.05.2021 13:36 26,3 C 27,8 C 32,3 C 57 % 1002,2 hPa 0,0 l/m 2 min 0 min 919 W/m 22,5 km/h (4 Bft) 93,62 %
09.05.2021 13:38 26,4 C 27,2 C 31,7 C 56 % 1002,0 hPa 0,0 l/m 2 min 0 min 913 W/m 32,2 km/h (5 Bft) 97,87 %
09.05.2021 13:40 26,4 C 27,8 C 32,3 C 56 % 1002,1 hPa 0,0 l/m 2 min 0 min 904 W/m 25,7 km/h (4 Bft) 97,83 %
09.05.2021 13:42 26,5 C 27,8 C 31,7 C 57 % 1002,1 hPa 0,0 l/m 2 min 0 min 906 W/m 29,0 km/h (5 Bft) 97,87 %
09.05.2021 13:44 26,6 C 28,3 C 30,0 C 56 % 1002,1 hPa 0,0 l/m 2 min 0 min 903 W/m 22,5 km/h (4 Bft) 97,87 %
09.05.2021 13:46 26,7 C 28,3 C 28,9 C 56 % 1002,1 hPa 0,0 l/m 2 min 0 min 902 W/m 19,3 km/h (3 Bft) 97,87 %
09.05.2021 13:48 26,8 C 28,3 C 28,4 C 56 % 1002,0 hPa 0,0 l/m 2 min 0 min 896 W/m 25,7 km/h (4 Bft) 97,87 %
09.05.2021 13:50 26,9 C 28,9 C 27,3 C 56 % 1002,1 hPa 0,0 l/m 2 min 0 min 901 W/m 35,4 km/h (5 Bft) 95,74 %
09.05.2021 13:52 27,0 C 28,9 C 26,1 C 55 % 1002,0 hPa 0,0 l/m 2 min 0 min 903 W/m 35,4 km/h (5 Bft) 97,83 %
09.05.2021 13:54 27,1 C 28,9 C 25,6 C 55 % 1002,0 hPa 0,0 l/m 2 min 0 min 903 W/m 29,0 km/h (5 Bft) 97,87 %
09.05.2021 13:56 27,3 C 28,9 C 25,6 C 55 % 1002,0 hPa 0,0 l/m 2 min 0 min 898 W/m 29,0 km/h (5 Bft) 95,74 %
09.05.2021 13:58 27,4 C 28,9 C 25,0 C 53 % 1001,9 hPa 0,0 l/m 2 min 0 min 889 W/m 35,4 km/h (5 Bft) 85,11 %
09.05.2021 14:00 27,5 C 29,4 C 25,0 C 53 % 1002,1 hPa 0,0 l/m 2 min 0 min 886 W/m 22,5 km/h (4 Bft) 82,98 %
09.05.2021 14:02 27,5 C 29,4 C 25,0 C 52 % 1001,9 hPa 0,0 l/m 2 min 0 min 900 W/m 29,0 km/h (5 Bft) 82,98 %
09.05.2021 14:04 27,7 C 29,4 C 25,0 C 53 % 1001,9 hPa 0,0 l/m 2 min 0 min 897 W/m 22,5 km/h (4 Bft) 76,60 %
09.05.2021 14:06 27,9 C 29,4 C 25,0 C 51 % 1002,0 hPa 0,0 l/m 2 min 0 min 876 W/m 41,8 km/h (6 Bft) 91,49 %
09.05.2021 14:08 27,9 C 29,4 C 25,0 C 48 % 1002,1 hPa 0,0 l/m 2 min 0 min 864 W/m 41,8 km/h (6 Bft) 97,87 %
09.05.2021 14:10 28,0 C 29,4 C 25,0 C 48 % 1002,2 hPa 0,0 l/m 2 min 0 min 900 W/m 35,4 km/h (5 Bft) 100,00 %
09.05.2021 14:12 28,1 C 29,4 C 25,0 C 48 % 1002,3 hPa 0,0 l/m 2 min 0 min 910 W/m 41,8 km/h (6 Bft) 97,87 %
09.05.2021 14:14 28,1 C 30,0 C 25,0 C 48 % 1002,3 hPa 0,0 l/m 2 min 0 min 904 W/m 25,7 km/h (4 Bft) 97,83 %
09.05.2021 14:16 28,3 C 30,0 C 25,0 C 48 % 1002,1 hPa 0,0 l/m 2 min 0 min 910 W/m 29,0 km/h (5 Bft) 97,87 %
09.05.2021 14:18 28,3 C 29,4 C 25,0 C 48 % 1002,3 hPa 0,0 l/m 2 min 0 min 851 W/m 32,2 km/h (5 Bft) 95,74 %
09.05.2021 14:20 28,3 C 30,0 C 25,0 C 48 % 1002,2 hPa 0,0 l/m 2 min 0 min 922 W/m 25,7 km/h (4 Bft) 97,87 %
09.05.2021 14:22 28,4 C 30,0 C 25,0 C 48 % 1002,3 hPa 0,0 l/m 2 min 0 min 923 W/m 35,4 km/h (5 Bft) 100,00 %
09.05.2021 14:24 28,5 C 30,0 C 25,6 C 47 % 1002,2 hPa 0,0 l/m 2 min 0 min 910 W/m 32,2 km/h (5 Bft) 97,87 %
09.05.2021 14:26 28,6 C 30,6 C 25,6 C 48 % 1002,1 hPa 0,0 l/m 2 min 0 min 902 W/m 32,2 km/h (5 Bft) 95,65 %
09.05.2021 14:28 28,6 C 30,6 C 25,6 C 47 % 1002,2 hPa 0,0 l/m 2 min 0 min 891 W/m 25,7 km/h (4 Bft) 97,87 %
09.05.2021 14:30 28,7 C 30,6 C 25,6 C 47 % 1002,2 hPa 0,0 l/m 2 min 0 min 889 W/m 35,4 km/h (5 Bft) 97,87 %
09.05.2021 14:32 28,8 C 30,6 C 25,6 C 47 % 1002,3 hPa 0,0 l/m 2 min 0 min 889 W/m 22,5 km/h (4 Bft) 95,74 %
09.05.2021 14:34 28,8 C 30,6 C 25,6 C 47 % 1002,1 hPa 0,0 l/m 2 min 0 min 882 W/m 25,7 km/h (4 Bft) 97,87 %
09.05.2021 14:36 28,8 C 30,6 C 25,0 C 48 % 1002,2 hPa 0,0 l/m 2 min 0 min 878 W/m 41,8 km/h (6 Bft) 97,87 %
09.05.2021 14:38 28,8 C 30,0 C 25,0 C 48 % 1002,2 hPa 0,0 l/m 2 min 0 min 880 W/m 32,2 km/h (5 Bft) 98,11 %
09.05.2021 14:40 28,8 C 30,6 C 25,0 C 48 % 1002,1 hPa 0,0 l/m 2 min 0 min 879 W/m 35,4 km/h (5 Bft) 97,87 %
09.05.2021 14:42 28,9 C 30,6 C 25,0 C 48 % 1002,2 hPa 0,0 l/m 2 min 0 min 854 W/m 29,0 km/h (5 Bft) 97,87 %
09.05.2021 14:44 28,9 C 30,0 C 25,0 C 47 % 1002,2 hPa 0,0 l/m 2 min 0 min 781 W/m 35,4 km/h (5 Bft) 95,74 %
09.05.2021 14:46 28,8 C 29,4 C 25,0 C 47 % 1002,1 hPa 0,0 l/m 2 min 0 min 738 W/m 25,7 km/h (4 Bft) 95,74 %
09.05.2021 14:48 28,7 C 30,0 C 25,0 C 48 % 1002,1 hPa 0,0 l/m 2 min 0 min 814 W/m 22,5 km/h (4 Bft) 97,83 %
09.05.2021 14:50 28,8 C 30,6 C 25,0 C 49 % 1002,1 hPa 0,0 l/m 2 min 0 min 881 W/m 29,0 km/h (5 Bft) 97,87 %
09.05.2021 14:52 28,8 C 30,6 C 25,0 C 48 % 1002,1 hPa 0,0 l/m 2 min 0 min 867 W/m 25,7 km/h (4 Bft) 95,74 %
09.05.2021 14:54 28,8 C 30,6 C 25,0 C 48 % 1002,0 hPa 0,0 l/m 2 min 0 min 870 W/m 29,0 km/h (5 Bft) 97,87 %
09.05.2021 14:56 28,8 C 30,6 C 25,0 C 48 % 1002,0 hPa 0,0 l/m 2 min 0 min 864 W/m 29,0 km/h (5 Bft) 97,87 %
09.05.2021 14:58 28,9 C 30,6 C 25,0 C 49 % 1001,9 hPa 0,0 l/m 2 min 0 min 819 W/m 22,5 km/h (4 Bft) 100,00 %
09.05.2021 15:00 28,9 C 30,6 C 25,0 C 48 % 1002,0 hPa 0,0 l/m 2 min 0 min 765 W/m 25,7 km/h (4 Bft) 97,83 %
09.05.2021 15:02 28,9 C 30,6 C 25,0 C 47 % 1002,0 hPa 0,0 l/m 2 min 0 min 818 W/m 25,7 km/h (4 Bft) 100,00 %
09.05.2021 15:04 28,9 C 30,6 C 25,0 C 47 % 1002,0 hPa 0,0 l/m 2 min 0 min 794 W/m 29,0 km/h (5 Bft) 93,62 %
09.05.2021 15:06 28,9 C 30,0 C 25,0 C 47 % 1002,0 hPa 0,0 l/m 2 min 0 min 838 W/m 41,8 km/h (6 Bft) 95,74 %
09.05.2021 15:08 28,8 C 29,4 C 25,0 C 47 % 1001,9 hPa 0,0 l/m 2 min 0 min 662 W/m 29,0 km/h (5 Bft) 95,74 %
09.05.2021 15:10 28,7 C 28,9 C 25,0 C 48 % 1002,0 hPa 0,0 l/m 0 min 0 min 325 W/m 35,4 km/h (5 Bft) 97,83 %
09.05.2021 15:12 28,6 C 30,0 C 25,0 C 48 % 1001,9 hPa 0,0 l/m 0 min 0 min 325 W/m 22,5 km/h (4 Bft) 93,62 %
09.05.2021 15:14 28,6 C 30,6 C 25,0 C 48 % 1001,9 hPa 0,0 l/m 2 min 0 min 806 W/m 45,1 km/h (6 Bft) 97,87 %
09.05.2021 15:16 28,6 C 30,0 C 25,0 C 48 % 1001,9 hPa 0,0 l/m 2 min 0 min 906 W/m 35,4 km/h (5 Bft) 95,74 %
09.05.2021 15:18 28,8 C 31,1 C 25,0 C 48 % 1002,0 hPa 0,0 l/m 2 min 0 min 908 W/m 19,3 km/h (3 Bft) 97,87 %
09.05.2021 15:20 28,8 C 31,1 C 25,0 C 48 % 1001,9 hPa 0,0 l/m 2 min 0 min 860 W/m 22,5 km/h (4 Bft) 97,87 %
09.05.2021 15:22 28,9 C 30,6 C 25,0 C 48 % 1001,9 hPa 0,0 l/m 2 min 0 min 853 W/m 19,3 km/h (3 Bft) 97,83 %
09.05.2021 15:24 29,0 C 30,6 C 25,0 C 48 % 1001,9 hPa 0,0 l/m 2 min 0 min 866 W/m 22,5 km/h (4 Bft) 97,87 %
09.05.2021 15:26 29,0 C 30,6 C 25,0 C 48 % 1001,8 hPa 0,0 l/m 2 min 0 min 874 W/m 32,2 km/h (5 Bft) 95,74 %
09.05.2021 15:28 29,0 C 30,6 C 25,0 C 48 % 1001,8 hPa 0,0 l/m 2 min 0 min 861 W/m 19,3 km/h (3 Bft) 97,87 %
09.05.2021 15:30 29,0 C 31,1 C 25,0 C 48 % 1001,8 hPa 0,0 l/m 2 min 0 min 792 W/m 22,5 km/h (4 Bft) 97,87 %
09.05.2021 15:32 29,1 C 31,1 C 25,0 C 48 % 1001,7 hPa 0,0 l/m 2 min 0 min 805 W/m 29,0 km/h (5 Bft) 95,74 %
09.05.2021 15:34 29,1 C 31,1 C 25,0 C 48 % 1001,7 hPa 0,0 l/m 2 min 0 min 833 W/m 19,3 km/h (3 Bft) 97,83 %
09.05.2021 15:36 29,2 C 31,7 C 25,6 C 48 % 1001,7 hPa 0,0 l/m 2 min 0 min 842 W/m 29,0 km/h (5 Bft) 97,87 %
09.05.2021 15:38 29,3 C 31,7 C 25,6 C 48 % 1001,7 hPa 0,0 l/m 2 min 0 min 837 W/m 25,7 km/h (4 Bft) 97,92 %
09.05.2021 15:40 29,3 C 31,7 C 25,0 C 48 % 1001,6 hPa 0,0 l/m 2 min 0 min 795 W/m 19,3 km/h (3 Bft) 95,74 %
09.05.2021 15:42 29,3 C 32,2 C 25,0 C 48 % 1001,5 hPa 0,0 l/m 2 min 0 min 789 W/m 19,3 km/h (3 Bft) 97,87 %
09.05.2021 15:44 29,4 C 32,2 C 25,0 C 47 % 1001,5 hPa 0,0 l/m 2 min 0 min 779 W/m 22,5 km/h (4 Bft) 97,87 %
09.05.2021 15:46 29,4 C 32,2 C 25,0 C 47 % 1001,4 hPa 0,0 l/m 2 min 0 min 769 W/m 16,1 km/h (3 Bft) 95,65 %
09.05.2021 15:48 29,4 C 31,7 C 25,0 C 47 % 1001,3 hPa 0,0 l/m 2 min 0 min 765 W/m 22,5 km/h (4 Bft) 95,74 %
09.05.2021 15:50 29,4 C 32,2 C 25,0 C 47 % 1001,3 hPa 0,0 l/m 2 min 0 min 746 W/m 19,3 km/h (3 Bft) 95,74 %
09.05.2021 15:52 29,4 C 32,2 C 25,0 C 48 % 1001,2 hPa 0,0 l/m 2 min 0 min 740 W/m 19,3 km/h (3 Bft) 97,87 %
09.05.2021 15:54 29,4 C 31,1 C 25,0 C 47 % 1001,3 hPa 0,0 l/m 2 min 0 min 601 W/m 22,5 km/h (4 Bft) 100,00 %
09.05.2021 15:56 29,3 C 30,6 C 25,0 C 47 % 1001,3 hPa 0,0 l/m 2 min 0 min 457 W/m 32,2 km/h (5 Bft) 95,74 %
09.05.2021 15:58 29,2 C 31,1 C 25,0 C 48 % 1001,3 hPa 0,0 l/m 2 min 0 min 653 W/m 19,3 km/h (3 Bft) 97,83 %
09.05.2021 16:00 29,1 C 31,1 C 25,0 C 48 % 1001,2 hPa 0,0 l/m 2 min 0 min 654 W/m 25,7 km/h (4 Bft) 97,87 %
09.05.2021 16:02 29,1 C 31,1 C 25,0 C 48 % 1001,2 hPa 0,0 l/m 2 min 0 min 650 W/m 22,5 km/h (4 Bft) 97,87 %
09.05.2021 16:04 29,1 C 31,7 C 25,0 C 48 % 1001,3 hPa 0,0 l/m 2 min 0 min 657 W/m 19,3 km/h (3 Bft) 95,74 %
09.05.2021 16:06 29,1 C 31,7 C 25,0 C 48 % 1001,2 hPa 0,0 l/m 2 min 0 min 677 W/m 22,5 km/h (4 Bft) 95,74 %
09.05.2021 16:08 29,1 C 32,2 C 25,0 C 48 % 1001,2 hPa 0,0 l/m 2 min 0 min 674 W/m 22,5 km/h (4 Bft) 93,62 %
09.05.2021 16:10 29,1 C 32,2 C 25,0 C 48 % 1001,1 hPa 0,0 l/m 2 min 0 min 678 W/m 16,1 km/h (3 Bft) 97,22 %
09.05.2021 16:12 29,2 C 32,2 C 25,0 C 48 % 1001,0 hPa 0,0 l/m 2 min 0 min 684 W/m 32,2 km/h (5 Bft) 97,83 %
09.05.2021 16:14 29,2 C 32,2 C 25,0 C 48 % 1001,0 hPa 0,0 l/m 2 min 0 min 588 W/m 16,1 km/h (3 Bft) 95,74 %
09.05.2021 16:16 29,2 C 31,7 C 25,0 C 48 % 1000,9 hPa 0,0 l/m 2 min 0 min 563 W/m 19,3 km/h (3 Bft) 92,00 %
09.05.2021 16:18 29,3 C 31,7 C 25,0 C 48 % 1001,0 hPa 0,0 l/m 2 min 0 min 581 W/m 22,5 km/h (4 Bft) 97,87 %
09.05.2021 16:20 29,3 C 32,2 C 25,0 C 48 % 1000,9 hPa 0,0 l/m 2 min 0 min 608 W/m 19,3 km/h (3 Bft) 97,87 %
09.05.2021 16:22 29,3 C 32,2 C 25,0 C 48 % 1000,9 hPa 0,0 l/m 2 min 0 min 627 W/m 16,1 km/h (3 Bft) 95,65 %
09.05.2021 16:24 29,3 C 32,8 C 25,0 C 49 % 1000,9 hPa 0,0 l/m 2 min 0 min 649 W/m 16,1 km/h (3 Bft) 95,74 %
09.05.2021 16:26 29,4 C 32,8 C 25,0 C 48 % 1000,8 hPa 0,0 l/m 2 min 0 min 669 W/m 19,3 km/h (3 Bft) 95,74 %
09.05.2021 16:28 29,4 C 32,8 C 25,6 C 48 % 1000,8 hPa 0,0 l/m 2 min 0 min 662 W/m 19,3 km/h (3 Bft) 97,87 %
09.05.2021 16:30 29,5 C 32,8 C 25,6 C 49 % 1000,8 hPa 0,0 l/m 2 min 0 min 661 W/m 16,1 km/h (3 Bft) 97,87 %
09.05.2021 16:32 29,5 C 33,3 C 25,6 C 48 % 1000,6 hPa 0,0 l/m 2 min 0 min 657 W/m 29,0 km/h (5 Bft) 96,00 %
09.05.2021 16:34 29,6 C 32,8 C 25,6 C 48 % 1000,6 hPa 0,0 l/m 2 min 0 min 628 W/m 22,5 km/h (4 Bft) 95,65 %
09.05.2021 16:36 29,6 C 32,8 C 25,6 C 47 % 1000,7 hPa 0,0 l/m 2 min 0 min 648 W/m 22,5 km/h (4 Bft) 100,00 %
09.05.2021 16:38 29,6 C 32,8 C 25,6 C 46 % 1000,6 hPa 0,0 l/m 2 min 0 min 631 W/m 22,5 km/h (4 Bft) 96,30 %
09.05.2021 16:40 29,5 C 32,8 C 25,0 C 46 % 1000,6 hPa 0,0 l/m 2 min 0 min 594 W/m 32,2 km/h (5 Bft) 97,87 %
09.05.2021 16:42 29,5 C 32,2 C 25,0 C 47 % 1000,5 hPa 0,0 l/m 2 min 0 min 564 W/m 22,5 km/h (4 Bft) 97,87 %
09.05.2021 16:44 29,5 C 32,2 C 25,0 C 47 % 1000,5 hPa 0,0 l/m 2 min 0 min 583 W/m 19,3 km/h (3 Bft) 97,87 %
09.05.2021 16:46 29,4 C 31,1 C 25,0 C 47 % 1000,6 hPa 0,0 l/m 2 min 0 min 372 W/m 19,3 km/h (3 Bft) 97,83 %
09.05.2021 16:48 29,3 C 30,6 C 25,0 C 47 % 1000,6 hPa 0,0 l/m 0 min 0 min 223 W/m 16,1 km/h (3 Bft) 97,83 %
09.05.2021 16:50 29,3 C 31,1 C 25,0 C 47 % 1000,6 hPa 0,0 l/m 2 min 0 min 390 W/m 19,3 km/h (3 Bft) 95,74 %
09.05.2021 16:52 29,3 C 31,7 C 25,0 C 48 % 1000,6 hPa 0,0 l/m 2 min 0 min 613 W/m 25,7 km/h (4 Bft) 94,00 %
09.05.2021 16:54 29,2 C 31,7 C 25,0 C 47 % 1000,5 hPa 0,0 l/m 2 min 0 min 656 W/m 25,7 km/h (4 Bft) 95,74 %
09.05.2021 16:56 29,2 C 32,8 C 25,0 C 48 % 1000,5 hPa 0,0 l/m 2 min 0 min 644 W/m 29,0 km/h (5 Bft) 97,87 %
09.05.2021 16:58 29,3 C 32,8 C 25,0 C 48 % 1000,5 hPa 0,0 l/m 2 min 0 min 621 W/m 16,1 km/h (3 Bft) 95,83 %
09.05.2021 17:00 29,3 C 33,3 C 25,0 C 48 % 1000,6 hPa 0,0 l/m 2 min 0 min 619 W/m 19,3 km/h (3 Bft) 97,87 %
09.05.2021 17:02 29,4 C 32,8 C 25,0 C 47 % 1000,6 hPa 0,0 l/m 2 min 0 min 538 W/m 22,5 km/h (4 Bft) 95,74 %
09.05.2021 17:04 29,4 C 32,2 C 25,0 C 47 % 1000,6 hPa 0,0 l/m 2 min 0 min 554 W/m 22,5 km/h (4 Bft) 97,87 %
09.05.2021 17:06 29,4 C 32,2 C 25,0 C 48 % 1000,6 hPa 0,0 l/m 2 min 0 min 550 W/m 19,3 km/h (3 Bft) 95,74 %
09.05.2021 17:08 29,4 C 32,2 C 25,0 C 48 % 1000,5 hPa 0,0 l/m 2 min 0 min 556 W/m 19,3 km/h (3 Bft) 97,83 %
09.05.2021 17:10 29,4 C 31,7 C 25,0 C 48 % 1000,5 hPa 0,0 l/m 2 min 0 min 562 W/m 22,5 km/h (4 Bft) 100,00 %
09.05.2021 17:12 29,4 C 30,6 C 25,0 C 48 % 1000,5 hPa 0,0 l/m 2 min 0 min 319 W/m 25,7 km/h (4 Bft) 97,62 %
09.05.2021 17:14 29,3 C 30,6 C 25,0 C 49 % 1000,5 hPa 0,0 l/m 2 min 0 min 389 W/m 22,5 km/h (4 Bft) 97,87 %
09.05.2021 17:16 29,3 C 30,6 C 25,0 C 48 % 1000,4 hPa 0,0 l/m 2 min 0 min 413 W/m 22,5 km/h (4 Bft) 97,87 %
09.05.2021 17:18 29,2 C 30,0 C 25,0 C 48 % 1000,5 hPa 0,0 l/m 2 min 0 min 312 W/m 19,3 km/h (3 Bft) 98,00 %
09.05.2021 17:20 29,1 C 29,4 C 25,0 C 48 % 1000,5 hPa 0,0 l/m 2 min 0 min 278 W/m 12,9 km/h (3 Bft) 97,87 %
09.05.2021 17:22 29,1 C 29,4 C 25,0 C 48 % 1000,5 hPa 0,0 l/m 0 min 0 min 266 W/m 16,1 km/h (3 Bft) 97,83 %
09.05.2021 17:24 29,0 C 28,9 C 24,5 C 48 % 1000,4 hPa 0,0 l/m 2 min 0 min 285 W/m 32,2 km/h (5 Bft) 95,74 %
09.05.2021 17:26 29,0 C 29,4 C 24,5 C 48 % 1000,4 hPa 0,0 l/m 2 min 0 min 412 W/m 19,3 km/h (3 Bft) 95,92 %
09.05.2021 17:28 28,9 C 29,4 C 24,5 C 48 % 1000,4 hPa 0,0 l/m 2 min 0 min 440 W/m 19,3 km/h (3 Bft) 97,87 %
09.05.2021 17:30 28,9 C 30,0 C 24,5 C 49 % 1000,3 hPa 0,0 l/m 2 min 0 min 446 W/m 16,1 km/h (3 Bft) 100,00 %
09.05.2021 17:32 28,9 C 30,0 C 25,0 C 50 % 1000,4 hPa 0,0 l/m 2 min 0 min 402 W/m 22,5 km/h (4 Bft) 100,00 %
09.05.2021 17:34 28,8 C 30,0 C 25,0 C 49 % 1000,3 hPa 0,0 l/m 2 min 0 min 449 W/m 22,5 km/h (4 Bft) 100,00 %
09.05.2021 17:36 28,8 C 30,0 C 25,0 C 50 % 1000,3 hPa 0,0 l/m 2 min 0 min 454 W/m 22,5 km/h (4 Bft) 97,87 %
09.05.2021 17:38 28,8 C 29,4 C 25,0 C 50 % 1000,3 hPa 0,0 l/m 2 min 0 min 403 W/m 16,1 km/h (3 Bft) 97,87 %
09.05.2021 17:40 28,8 C 28,9 C 24,5 C 49 % 1000,3 hPa 0,0 l/m 2 min 0 min 282 W/m 22,5 km/h (4 Bft) 100,00 %
09.05.2021 17:42 28,7 C 28,9 C 24,5 C 49 % 1000,3 hPa 0,0 l/m 2 min 0 min 272 W/m 25,7 km/h (4 Bft) 97,87 %
09.05.2021 17:44 28,6 C 28,3 C 24,5 C 49 % 1000,3 hPa 0,0 l/m 2 min 0 min 261 W/m 22,5 km/h (4 Bft) 100,00 %
09.05.2021 17:46 28,6 C 28,3 C 24,5 C 50 % 1000,3 hPa 0,0 l/m 2 min 0 min 248 W/m 22,5 km/h (4 Bft) 100,00 %
09.05.2021 17:48 28,5 C 28,3 C 24,5 C 50 % 1000,2 hPa 0,0 l/m 2 min 0 min 313 W/m 19,3 km/h (3 Bft) 100,00 %
09.05.2021 17:50 28,5 C 28,3 C 24,5 C 49 % 1000,3 hPa 0,0 l/m 2 min 0 min 296 W/m 22,5 km/h (4 Bft) 100,00 %
09.05.2021 17:52 28,4 C 28,3 C 24,5 C 50 % 1000,2 hPa 0,0 l/m 2 min 0 min 272 W/m 22,5 km/h (4 Bft) 100,00 %
09.05.2021 17:54 28,4 C 29,4 C 24,5 C 49 % 1000,2 hPa 0,0 l/m 2 min 0 min 485 W/m 22,5 km/h (4 Bft) 100,00 %
09.05.2021 17:56 28,4 C 30,0 C 24,5 C 50 % 1000,3 hPa 0,0 l/m 2 min 0 min 499 W/m 16,1 km/h (3 Bft) 97,92 %
09.05.2021 17:58 28,5 C 30,6 C 24,5 C 50 % 1000,2 hPa 0,0 l/m 2 min 0 min 497 W/m 19,3 km/h (3 Bft) 100,00 %
09.05.2021 18:00 28,5 C 30,6 C 25,0 C 50 % 1000,4 hPa 0,0 l/m 2 min 0 min 368 W/m 19,3 km/h (3 Bft) 97,87 %
09.05.2021 18:02 28,5 C 30,0 C 24,5 C 49 % 1000,3 hPa 0,0 l/m 2 min 0 min 288 W/m 35,4 km/h (5 Bft) 100,00 %
09.05.2021 18:04 28,5 C 29,4 C 24,5 C 48 % 1000,3 hPa 0,0 l/m 2 min 0 min 393 W/m 22,5 km/h (4 Bft) 100,00 %
09.05.2021 18:08 28,5 C 28,3 C 24,5 C 48 % 1000,3 hPa 0,0 l/m 4 min 0 min 258 W/m 29,0 km/h (5 Bft) 100,00 %
09.05.2021 18:10 28,4 C 27,8 C 24,5 C 49 % 1000,3 hPa 0,0 l/m 0 min 0 min 182 W/m 29,0 km/h (5 Bft) 100,00 %
09.05.2021 18:12 28,3 C 27,8 C 23,9 C 49 % 1000,3 hPa 0,0 l/m 0 min 0 min 195 W/m 19,3 km/h (3 Bft) 97,14 %
09.05.2021 18:14 28,3 C 27,8 C 23,9 C 49 % 1000,4 hPa 0,0 l/m 0 min 0 min 200 W/m 22,5 km/h (4 Bft) 100,00 %
09.05.2021 18:16 28,2 C 27,8 C 23,9 C 50 % 1000,4 hPa 0,0 l/m 2 min 0 min 229 W/m 19,3 km/h (3 Bft) 100,00 %
09.05.2021 18:18 28,1 C 27,8 C 23,9 C 49 % 1000,4 hPa 0,0 l/m 2 min 0 min 337 W/m 16,1 km/h (3 Bft) 97,83 %
09.05.2021 18:20 28,1 C 28,3 C 23,9 C 50 % 1000,3 hPa 0,0 l/m 2 min 0 min 341 W/m 12,9 km/h (3 Bft) 80,85 %
09.05.2021 18:22 28,0 C 28,3 C 23,9 C 50 % 1000,3 hPa 0,0 l/m 2 min 0 min 343 W/m 29,0 km/h (5 Bft) 95,74 %
09.05.2021 18:24 28,0 C 27,8 C 23,9 C 49 % 1000,4 hPa 0,0 l/m 0 min 0 min 175 W/m 22,5 km/h (4 Bft) 94,00 %
09.05.2021 18:26 27,9 C 27,8 C 23,9 C 48 % 1000,4 hPa 0,0 l/m 2 min 0 min 232 W/m 29,0 km/h (5 Bft) 91,67 %
09.05.2021 18:28 27,9 C 27,8 C 23,9 C 48 % 1000,4 hPa 0,0 l/m 0 min 0 min 181 W/m 19,3 km/h (3 Bft) 100,00 %
09.05.2021 18:30 27,9 C 27,2 C 23,9 C 49 % 1000,4 hPa 0,0 l/m 0 min 0 min 140 W/m 22,5 km/h (4 Bft) 97,87 %
09.05.2021 18:32 27,8 C 27,2 C 23,9 C 49 % 1000,4 hPa 0,0 l/m 0 min 0 min 135 W/m 16,1 km/h (3 Bft) 100,00 %
09.05.2021 18:34 27,8 C 27,2 C 23,4 C 49 % 1000,4 hPa 0,0 l/m 0 min 0 min 128 W/m 22,5 km/h (4 Bft) 100,00 %
09.05.2021 18:36 27,6 C 26,7 C 23,4 C 49 % 1000,5 hPa 0,0 l/m 0 min 0 min 125 W/m 22,5 km/h (4 Bft) 100,00 %
09.05.2021 18:38 27,6 C 26,7 C 23,4 C 49 % 1000,5 hPa 0,0 l/m 0 min 0 min 122 W/m 25,7 km/h (4 Bft) 97,87 %
09.05.2021 18:40 27,5 C 26,7 C 23,4 C 49 % 1000,5 hPa 0,0 l/m 0 min 0 min 119 W/m 16,1 km/h (3 Bft) 97,87 %
09.05.2021 18:42 27,5 C 26,7 C 23,4 C 50 % 1000,6 hPa 0,0 l/m 0 min 0 min 115 W/m 19,3 km/h (3 Bft) 97,87 %
09.05.2021 18:44 27,4 C 26,1 C 23,4 C 50 % 1000,5 hPa 0,0 l/m 0 min 0 min 112 W/m 22,5 km/h (4 Bft) 95,74 %
09.05.2021 18:46 27,3 C 26,1 C 22,8 C 50 % 1000,6 hPa 0,0 l/m 0 min 0 min 109 W/m 22,5 km/h (4 Bft) 95,65 %
09.05.2021 18:48 27,3 C 26,1 C 22,8 C 51 % 1000,6 hPa 0,0 l/m 0 min 0 min 109 W/m 25,7 km/h (4 Bft) 97,87 %
09.05.2021 18:50 27,2 C 26,1 C 22,8 C 51 % 1000,5 hPa 0,0 l/m 0 min 0 min 101 W/m 19,3 km/h (3 Bft) 97,87 %
09.05.2021 18:52 27,1 C 26,1 C 22,8 C 51 % 1000,5 hPa 0,0 l/m 0 min 0 min 93 W/m 12,9 km/h (3 Bft) 98,18 %
09.05.2021 18:54 27,1 C 26,1 C 22,8 C 51 % 1000,5 hPa 0,0 l/m 0 min 0 min 89 W/m 19,3 km/h (3 Bft) 97,83 %
09.05.2021 18:56 27,0 C 26,1 C 22,8 C 51 % 1000,5 hPa 0,0 l/m 0 min 0 min 94 W/m 19,3 km/h (3 Bft) 97,87 %
09.05.2021 18:58 26,9 C 26,1 C 20,0 C 52 % 1000,5 hPa 0,0 l/m 0 min 0 min 97 W/m 16,1 km/h (3 Bft) 98,00 %
09.05.2021 19:00 26,9 C 25,6 C 19,5 C 52 % 1000,5 hPa 0,0 l/m 0 min 0 min 96 W/m 9,7 km/h (2 Bft) 95,83 %
09.05.2021 19:02 26,8 C 26,1 C 19,5 C 52 % 1000,5 hPa 0,0 l/m 0 min 0 min 114 W/m 12,9 km/h (3 Bft) 97,14 %
09.05.2021 19:04 26,8 C 26,1 C 20,6 C 52 % 1000,5 hPa 0,0 l/m 0 min 0 min 112 W/m 12,9 km/h (3 Bft) 98,00 %
09.05.2021 19:06 26,7 C 25,6 C 21,1 C 52 % 1000,4 hPa 0,0 l/m 0 min 0 min 110 W/m 16,1 km/h (3 Bft) 95,74 %
09.05.2021 19:08 26,6 C 25,6 C 21,1 C 52 % 1000,4 hPa 0,0 l/m 0 min 0 min 108 W/m 12,9 km/h (3 Bft) 95,65 %
09.05.2021 19:10 26,6 C 25,6 C 21,7 C 52 % 1000,4 hPa 0,0 l/m 0 min 0 min 108 W/m 16,1 km/h (3 Bft) 93,62 %
09.05.2021 19:12 26,6 C 25,6 C 21,7 C 53 % 1000,4 hPa 0,0 l/m 0 min 0 min 105 W/m 12,9 km/h (3 Bft) 95,74 %
09.05.2021 19:14 26,5 C 25,6 C 21,7 C 53 % 1000,4 hPa 0,0 l/m 0 min 0 min 102 W/m 12,9 km/h (3 Bft) 95,74 %
09.05.2021 19:16 26,5 C 25,6 C 21,7 C 53 % 1000,4 hPa 0,0 l/m 0 min 0 min 102 W/m 6,4 km/h (2 Bft) 97,87 %
09.05.2021 19:18 26,4 C 25,6 C 21,7 C 53 % 1000,3 hPa 0,0 l/m 0 min 0 min 102 W/m 19,3 km/h (3 Bft) 95,65 %
09.05.2021 19:20 26,4 C 25,6 C 21,7 C 53 % 1000,4 hPa 0,0 l/m 0 min 0 min 104 W/m 16,1 km/h (3 Bft) 92,73 %
09.05.2021 19:22 26,4 C 25,6 C 21,7 C 53 % 1000,4 hPa 0,0 l/m 0 min 0 min 104 W/m 16,1 km/h (3 Bft) 93,62 %
09.05.2021 19:24 26,3 C 25,6 C 21,7 C 53 % 1000,4 hPa 0,0 l/m 0 min 0 min 104 W/m 6,4 km/h (2 Bft) 93,62 %
09.05.2021 19:26 26,3 C 25,6 C 21,7 C 53 % 1000,4 hPa 0,0 l/m 0 min 0 min 102 W/m 6,4 km/h (2 Bft) 93,62 %
09.05.2021 19:28 26,3 C 25,6 C 21,7 C 53 % 1000,4 hPa 0,0 l/m 0 min 0 min 102 W/m 12,9 km/h (3 Bft) 93,48 %
09.05.2021 19:30 26,2 C 25,6 C 21,7 C 53 % 1000,4 hPa 0,0 l/m 0 min 0 min 98 W/m 9,7 km/h (2 Bft) 93,62 %
09.05.2021 19:32 26,2 C 25,0 C 21,7 C 53 % 1000,4 hPa 0,0 l/m 0 min 0 min 95 W/m 16,1 km/h (3 Bft) 95,83 %
09.05.2021 19:34 26,1 C 25,0 C 21,7 C 52 % 1000,4 hPa 0,0 l/m 0 min 0 min 91 W/m 12,9 km/h (3 Bft) 95,74 %
09.05.2021 19:36 26,1 C 25,0 C 21,7 C 52 % 1000,4 hPa 0,0 l/m 0 min 0 min 89 W/m 16,1 km/h (3 Bft) 93,62 %
09.05.2021 19:38 26,0 C 25,0 C 21,7 C 52 % 1000,4 hPa 0,0 l/m 0 min 0 min 83 W/m 12,9 km/h (3 Bft) 95,74 %
09.05.2021 19:40 26,0 C 25,0 C 21,7 C 52 % 1000,4 hPa 0,0 l/m 0 min 0 min 78 W/m 16,1 km/h (3 Bft) 93,48 %
09.05.2021 19:42 26,0 C 25,0 C 21,7 C 52 % 1000,4 hPa 0,0 l/m 0 min 0 min 76 W/m 12,9 km/h (3 Bft) 93,62 %
09.05.2021 19:44 26,0 C 25,0 C 21,7 C 53 % 1000,4 hPa 0,0 l/m 0 min 0 min 76 W/m 19,3 km/h (3 Bft) 95,74 %
09.05.2021 19:46 26,0 C 25,0 C 21,7 C 53 % 1000,4 hPa 0,0 l/m 0 min 0 min 79 W/m 6,4 km/h (2 Bft) 95,74 %
09.05.2021 19:48 25,9 C 25,0 C 21,7 C 53 % 1000,5 hPa 0,0 l/m 0 min 0 min 76 W/m 6,4 km/h (2 Bft) 91,49 %
09.05.2021 19:50 25,9 C 25,0 C 21,1 C 53 % 1000,5 hPa 0,0 l/m 0 min 0 min 73 W/m 16,1 km/h (3 Bft) 91,49 %
09.05.2021 19:52 25,9 C 25,0 C 21,1 C 53 % 1000,5 hPa 0,0 l/m 0 min 0 min 69 W/m 6,4 km/h (2 Bft) 93,48 %
09.05.2021 19:54 25,9 C 25,0 C 21,1 C 53 % 1000,5 hPa 0,0 l/m 0 min 0 min 68 W/m 12,9 km/h (3 Bft) 100,00 %
09.05.2021 19:56 25,8 C 25,0 C 21,1 C 53 % 1000,5 hPa 0,0 l/m 0 min 0 min 65 W/m 6,4 km/h (2 Bft) 97,87 %
09.05.2021 19:58 25,8 C 24,4 C 21,1 C 53 % 1000,4 hPa 0,0 l/m 0 min 0 min 63 W/m 6,4 km/h (2 Bft) 95,74 %
09.05.2021 20:00 25,8 C 24,4 C 21,1 C 54 % 1000,4 hPa 0,0 l/m 0 min 0 min 61 W/m 3,2 km/h (1 Bft) 93,62 %
09.05.2021 20:02 25,7 C 24,4 C 21,1 C 54 % 1000,4 hPa 0,0 l/m 0 min 0 min 57 W/m 6,4 km/h (2 Bft) 97,92 %
09.05.2021 20:04 25,6 C 24,4 C 21,1 C 54 % 1000,4 hPa 0,0 l/m 0 min 0 min 53 W/m 6,4 km/h (2 Bft) 95,65 %
09.05.2021 20:06 25,6 C 24,4 C 21,1 C 54 % 1000,4 hPa 0,0 l/m 0 min 0 min 51 W/m 6,4 km/h (2 Bft) 97,87 %
09.05.2021 20:08 25,6 C 24,4 C 20,6 C 54 % 1000,4 hPa 0,0 l/m 0 min 0 min 47 W/m 6,4 km/h (2 Bft) 95,74 %
09.05.2021 20:10 25,6 C 24,4 C 20,6 C 54 % 1000,4 hPa 0,0 l/m 0 min 0 min 44 W/m 3,2 km/h (1 Bft) 97,87 %
09.05.2021 20:12 25,5 C 23,9 C 20,6 C 54 % 1000,4 hPa 0,0 l/m 0 min 0 min 42 W/m 3,2 km/h (1 Bft) 97,87 %
09.05.2021 20:14 25,5 C 23,9 C 20,6 C 54 % 1000,3 hPa 0,0 l/m 0 min 0 min 40 W/m 6,4 km/h (2 Bft) 100,00 %
09.05.2021 20:16 25,4 C 23,9 C 20,6 C 54 % 1000,4 hPa 0,0 l/m 0 min 0 min 39 W/m 3,2 km/h (1 Bft) 100,00 %
09.05.2021 20:18 25,4 C 23,9 C 20,6 C 55 % 1000,4 hPa 0,0 l/m 0 min 0 min 36 W/m 6,4 km/h (2 Bft) 100,00 %
09.05.2021 20:20 25,3 C 23,9 C 20,6 C 54 % 1000,3 hPa 0,0 l/m 0 min 0 min 34 W/m 3,2 km/h (1 Bft) 100,00 %
09.05.2021 20:22 25,3 C 23,9 C 20,0 C 55 % 1000,4 hPa 0,0 l/m 0 min 0 min 32 W/m 3,2 km/h (1 Bft) 100,00 %
09.05.2021 20:24 25,3 C 23,9 C 20,0 C 55 % 1000,4 hPa 0,0 l/m 0 min 0 min 29 W/m 3,2 km/h (1 Bft) 100,00 %
09.05.2021 20:26 25,2 C 23,3 C 20,0 C 55 % 1000,3 hPa 0,0 l/m 0 min 0 min 26 W/m 3,2 km/h (1 Bft) 100,00 %
09.05.2021 20:28 25,1 C 23,3 C 20,0 C 55 % 1000,4 hPa 0,0 l/m 0 min 0 min 25 W/m 6,4 km/h (2 Bft) 100,00 %
09.05.2021 20:30 25,1 C 23,3 C 19,5 C 56 % 1000,4 hPa 0,0 l/m 0 min 0 min 23 W/m 6,4 km/h (2 Bft) 100,00 %
09.05.2021 20:32 25,1 C 23,3 C 19,5 C 56 % 1000,5 hPa 0,0 l/m 0 min 0 min 22 W/m 3,2 km/h (1 Bft) 100,00 %
09.05.2021 20:34 25,0 C 23,3 C 19,5 C 56 % 1000,4 hPa 0,0 l/m 0 min 0 min 20 W/m 6,4 km/h (2 Bft) 100,00 %
09.05.2021 20:36 25,0 C 23,3 C 19,5 C 57 % 1000,4 hPa 0,0 l/m 0 min 0 min 18 W/m 3,2 km/h (1 Bft) 100,00 %
09.05.2021 20:38 24,9 C 23,3 C 19,5 C 57 % 1000,5 hPa 0,0 l/m 0 min 0 min 16 W/m 3,2 km/h (1 Bft) 100,00 %
09.05.2021 20:40 24,9 C 22,8 C 19,5 C 57 % 1000,4 hPa 0,0 l/m 0 min 0 min 15 W/m 3,2 km/h (1 Bft) 100,00 %
09.05.2021 20:42 24,8 C 22,8 C 19,5 C 57 % 1000,4 hPa 0,0 l/m 0 min 0 min 12 W/m 6,4 km/h (2 Bft) 100,00 %
09.05.2021 20:44 24,7 C 22,8 C 19,5 C 57 % 1000,4 hPa 0,0 l/m 0 min 0 min 12 W/m 6,4 km/h (2 Bft) 100,00 %
09.05.2021 20:46 24,6 C 22,8 C 19,5 C 57 % 1000,4 hPa 0,0 l/m 0 min 0 min 11 W/m 3,2 km/h (1 Bft) 100,00 %
09.05.2021 20:48 24,6 C 22,8 C 19,5 C 58 % 1000,4 hPa 0,0 l/m 0 min 0 min 10 W/m 3,2 km/h (1 Bft) 100,00 %
09.05.2021 20:50 24,5 C 22,8 C 18,9 C 58 % 1000,4 hPa 0,0 l/m 0 min 0 min 9 W/m 3,2 km/h (1 Bft) 97,87 %
09.05.2021 20:52 24,5 C 22,8 C 18,9 C 58 % 1000,4 hPa 0,0 l/m 0 min 0 min 8 W/m 0,0 km/h (0 Bft) 97,87 %
09.05.2021 20:54 24,4 C 22,8 C 18,9 C 58 % 1000,4 hPa 0,0 l/m 0 min 0 min 6 W/m 3,2 km/h (1 Bft) 97,83 %
09.05.2021 20:56 24,3 C 22,2 C 18,9 C 58 % 1000,4 hPa 0,0 l/m 0 min 0 min 5 W/m 3,2 km/h (1 Bft) 100,00 %
09.05.2021 20:58 24,3 C 22,2 C 18,9 C 58 % 1000,4 hPa 0,0 l/m 0 min 0 min 5 W/m 3,2 km/h (1 Bft) 100,00 %
09.05.2021 21:00 24,2 C 22,2 C 18,9 C 58 % 1000,4 hPa 0,0 l/m 0 min 0 min 1 W/m 3,2 km/h (1 Bft) 100,00 %
09.05.2021 21:02 24,1 C 22,2 C 18,9 C 59 % 1000,5 hPa 0,0 l/m 0 min 0 min 0 W/m 6,4 km/h (2 Bft) 100,00 %
09.05.2021 21:04 24,1 C 22,2 C 18,9 C 58 % 1000,5 hPa 0,0 l/m 0 min 0 min 0 W/m 3,2 km/h (1 Bft) 97,87 %
09.05.2021 21:06 24,0 C 22,2 C 18,9 C 58 % 1000,5 hPa 0,0 l/m 0 min 0 min 0 W/m 3,2 km/h (1 Bft) 100,00 %
09.05.2021 21:08 24,0 C 22,2 C 18,9 C 59 % 1000,6 hPa 0,0 l/m 0 min 0 min 0 W/m 6,4 km/h (2 Bft) 100,00 %
09.05.2021 21:10 23,9 C 22,2 C 18,9 C 59 % 1000,6 hPa 0,0 l/m 0 min 0 min 0 W/m 3,2 km/h (1 Bft) 100,00 %
09.05.2021 21:12 23,8 C 22,2 C 18,9 C 60 % 1000,6 hPa 0,0 l/m 0 min 0 min 0 W/m 6,4 km/h (2 Bft) 100,00 %
09.05.2021 21:14 23,8 C 22,2 C 18,9 C 59 % 1000,6 hPa 0,0 l/m 0 min 0 min 0 W/m 6,4 km/h (2 Bft) 100,00 %
09.05.2021 21:16 23,7 C 22,2 C 18,9 C 60 % 1000,6 hPa 0,0 l/m 0 min 0 min 0 W/m 6,4 km/h (2 Bft) 100,00 %
09.05.2021 21:18 23,6 C 22,2 C 18,9 C 60 % 1000,6 hPa 0,0 l/m 0 min 0 min 0 W/m 6,4 km/h (2 Bft) 100,00 %
09.05.2021 21:20 23,5 C 21,7 C 18,9 C 60 % 1000,6 hPa 0,0 l/m 0 min 0 min 0 W/m 6,4 km/h (2 Bft) 97,87 %
09.05.2021 21:22 23,5 C 21,7 C 18,9 C 60 % 1000,6 hPa 0,0 l/m 0 min 0 min 0 W/m 6,4 km/h (2 Bft) 100,00 %
09.05.2021 21:24 23,4 C 21,7 C 18,9 C 60 % 1000,6 hPa 0,0 l/m 0 min 0 min 0 W/m 6,4 km/h (2 Bft) 100,00 %
09.05.2021 21:26 23,4 C 21,7 C 18,9 C 60 % 1000,7 hPa 0,0 l/m 0 min 0 min 0 W/m 6,4 km/h (2 Bft) 100,00 %
09.05.2021 21:28 23,3 C 21,7 C 18,4 C 61 % 1000,7 hPa 0,0 l/m 0 min 0 min 0 W/m 12,9 km/h (3 Bft) 100,00 %
09.05.2021 21:30 23,3 C 21,7 C 18,4 C 61 % 1000,7 hPa 0,0 l/m 0 min 0 min 0 W/m 6,4 km/h (2 Bft) 100,00 %
09.05.2021 21:32 23,1 C 21,7 C 18,4 C 61 % 1000,7 hPa 0,0 l/m 0 min 0 min 0 W/m 12,9 km/h (3 Bft) 100,00 %
09.05.2021 21:34 23,0 C 21,7 C 18,4 C 61 % 1000,7 hPa 0,0 l/m 0 min 0 min 0 W/m 9,7 km/h (2 Bft) 100,00 %
09.05.2021 21:36 23,0 C 21,7 C 18,4 C 61 % 1000,7 hPa 0,0 l/m 0 min 0 min 0 W/m 12,9 km/h (3 Bft) 95,74 %
09.05.2021 21:38 22,9 C 21,7 C 18,4 C 61 % 1000,8 hPa 0,0 l/m 0 min 0 min 0 W/m 12,9 km/h (3 Bft) 100,00 %
09.05.2021 21:40 22,8 C 21,7 C 18,4 C 61 % 1000,8 hPa 0,0 l/m 0 min 0 min 0 W/m 16,1 km/h (3 Bft) 100,00 %
09.05.2021 21:42 22,8 C 21,1 C 18,4 C 61 % 1000,8 hPa 0,0 l/m 0 min 0 min 0 W/m 12,9 km/h (3 Bft) 97,87 %
09.05.2021 21:44 22,7 C 21,1 C 18,4 C 61 % 1000,8 hPa 0,0 l/m 0 min 0 min 0 W/m 16,1 km/h (3 Bft) 97,87 %
09.05.2021 21:46 22,6 C 21,1 C 18,4 C 61 % 1000,8 hPa 0,0 l/m 0 min 0 min 0 W/m 16,1 km/h (3 Bft) 100,00 %
09.05.2021 21:48 22,6 C 21,1 C 18,4 C 61 % 1000,8 hPa 0,0 l/m 0 min 0 min 0 W/m 12,9 km/h (3 Bft) 100,00 %
09.05.2021 21:50 22,5 C 21,1 C 18,4 C 61 % 1000,8 hPa 0,0 l/m 0 min 0 min 0 W/m 16,1 km/h (3 Bft) 100,00 %
09.05.2021 21:52 22,5 C 21,1 C 18,4 C 61 % 1000,9 hPa 0,0 l/m 0 min 0 min 0 W/m 12,9 km/h (3 Bft) 100,00 %
09.05.2021 21:54 22,4 C 21,1 C 18,4 C 61 % 1000,9 hPa 0,0 l/m 0 min 0 min 0 W/m 16,1 km/h (3 Bft) 95,74 %
09.05.2021 21:56 22,4 C 21,1 C 18,4 C 61 % 1000,9 hPa 0,0 l/m 0 min 0 min 0 W/m 12,9 km/h (3 Bft) 95,74 %
09.05.2021 21:58 22,3 C 21,1 C 18,4 C 61 % 1000,9 hPa 0,0 l/m 0 min 0 min 0 W/m 9,7 km/h (2 Bft) 93,62 %
09.05.2021 22:00 22,3 C 21,1 C 18,4 C 60 % 1000,9 hPa 0,0 l/m 0 min 0 min 0 W/m 12,9 km/h (3 Bft) 93,62 %
09.05.2021 22:02 22,3 C 21,1 C 17,8 C 60 % 1001,0 hPa 0,0 l/m 0 min 0 min 0 W/m 6,4 km/h (2 Bft) 95,74 %
09.05.2021 22:04 22,2 C 21,1 C 17,8 C 60 % 1001,0 hPa 0,0 l/m 0 min 0 min 0 W/m 9,7 km/h (2 Bft) 93,48 %
09.05.2021 22:06 22,2 C 21,1 C 17,8 C 60 % 1001,0 hPa 0,0 l/m 0 min 0 min 0 W/m 6,4 km/h (2 Bft) 91,49 %
09.05.2021 22:08 22,1 C 21,1 C 17,8 C 60 % 1001,0 hPa 0,0 l/m 0 min 0 min 0 W/m 19,3 km/h (3 Bft) 95,74 %
09.05.2021 22:10 22,1 C 21,1 C 17,8 C 60 % 1001,0 hPa 0,0 l/m 0 min 0 min 0 W/m 12,9 km/h (3 Bft) 95,74 %
09.05.2021 22:12 22,0 C 20,6 C 17,8 C 60 % 1001,0 hPa 0,0 l/m 0 min 0 min 0 W/m 3,2 km/h (1 Bft) 95,74 %
09.05.2021 22:14 22,0 C 20,6 C 17,8 C 60 % 1001,0 hPa 0,0 l/m 0 min 0 min 0 W/m 6,4 km/h (2 Bft) 93,62 %
09.05.2021 22:16 22,0 C 20,6 C 17,8 C 60 % 1001,0 hPa 0,0 l/m 0 min 0 min 0 W/m 6,4 km/h (2 Bft) 95,65 %
09.05.2021 22:18 22,0 C 20,6 C 17,8 C 60 % 1001,0 hPa 0,0 l/m 0 min 0 min 0 W/m 6,4 km/h (2 Bft) 95,74 %
09.05.2021 22:20 21,9 C 20,6 C 17,8 C 60 % 1001,0 hPa 0,0 l/m 0 min 0 min 0 W/m 9,7 km/h (2 Bft) 95,74 %
09.05.2021 22:22 21,9 C 20,6 C 17,8 C 60 % 1001,1 hPa 0,0 l/m 0 min 0 min 0 W/m 3,2 km/h (1 Bft) 91,49 %
09.05.2021 22:24 21,9 C 20,6 C 17,8 C 60 % 1001,0 hPa 0,0 l/m 0 min 0 min 0 W/m 6,4 km/h (2 Bft) 91,49 %
09.05.2021 22:26 21,8 C 20,6 C 17,3 C 60 % 1001,0 hPa 0,0 l/m 0 min 0 min 0 W/m 9,7 km/h (2 Bft) 93,62 %
09.05.2021 22:28 21,8 C 20,6 C 17,3 C 60 % 1001,0 hPa 0,0 l/m 0 min 0 min 0 W/m 9,7 km/h (2 Bft) 91,30 %
09.05.2021 22:30 21,7 C 20,6 C 17,3 C 60 % 1001,0 hPa 0,0 l/m 0 min 0 min 0 W/m 12,9 km/h (3 Bft) 93,62 %
09.05.2021 22:32 21,7 C 20,6 C 17,3 C 60 % 1001,1 hPa 0,0 l/m 0 min 0 min 0 W/m 16,1 km/h (3 Bft) 93,62 %
09.05.2021 22:34 21,6 C 20,0 C 17,3 C 60 % 1001,1 hPa 0,0 l/m 0 min 0 min 0 W/m 12,9 km/h (3 Bft) 93,62 %
09.05.2021 22:36 21,6 C 20,0 C 17,3 C 60 % 1001,1 hPa 0,0 l/m 0 min 0 min 0 W/m 9,7 km/h (2 Bft) 93,62 %
09.05.2021 22:38 21,5 C 20,0 C 17,3 C 60 % 1001,2 hPa 0,0 l/m 0 min 0 min 0 W/m 12,9 km/h (3 Bft) 93,62 %
09.05.2021 22:40 21,5 C 20,0 C 17,3 C 60 % 1001,2 hPa 0,0 l/m 0 min 0 min 0 W/m 16,1 km/h (3 Bft) 91,30 %
09.05.2021 22:42 21,4 C 20,0 C 17,3 C 60 % 1001,2 hPa 0,0 l/m 0 min 0 min 0 W/m 12,9 km/h (3 Bft) 95,74 %
09.05.2021 22:44 21,4 C 20,0 C 17,3 C 60 % 1001,2 hPa 0,0 l/m 0 min 0 min 0 W/m 12,9 km/h (3 Bft) 95,74 %
09.05.2021 22:46 21,3 C 20,0 C 17,3 C 60 % 1001,2 hPa 0,0 l/m 0 min 0 min 0 W/m 12,9 km/h (3 Bft) 97,87 %
09.05.2021 22:48 21,3 C 20,0 C 17,3 C 60 % 1001,2 hPa 0,0 l/m 0 min 0 min 0 W/m 6,4 km/h (2 Bft) 95,74 %
09.05.2021 22:50 21,3 C 20,0 C 17,3 C 60 % 1001,2 hPa 0,0 l/m 0 min 0 min 0 W/m 12,9 km/h (3 Bft) 93,48 %
09.05.2021 22:52 21,3 C 20,0 C 17,3 C 60 % 1001,2 hPa 0,0 l/m 0 min 0 min 0 W/m 12,9 km/h (3 Bft) 95,74 %
09.05.2021 22:54 21,2 C 20,0 C 17,3 C 60 % 1001,3 hPa 0,0 l/m 0 min 0 min 0 W/m 12,9 km/h (3 Bft) 97,87 %
09.05.2021 22:56 21,1 C 20,0 C 17,3 C 60 % 1001,3 hPa 0,0 l/m 0 min 0 min 0 W/m 9,7 km/h (2 Bft) 95,74 %
09.05.2021 22:58 21,1 C 20,0 C 17,3 C 60 % 1001,2 hPa 0,0 l/m 0 min 0 min 0 W/m 12,9 km/h (3 Bft) 97,87 %
09.05.2021 23:00 21,1 C 20,0 C 17,3 C 61 % 1001,2 hPa 0,0 l/m 0 min 0 min 0 W/m 12,9 km/h (3 Bft) 97,87 %
09.05.2021 23:02 21,0 C 20,0 C 17,3 C 61 % 1001,1 hPa 0,0 l/m 0 min 0 min 0 W/m 6,4 km/h (2 Bft) 98,08 %
09.05.2021 23:04 21,0 C 20,0 C 17,3 C 61 % 1001,2 hPa 0,0 l/m 0 min 0 min 0 W/m 6,4 km/h (2 Bft) 97,56 %
09.05.2021 23:06 21,0 C 20,0 C 17,3 C 61 % 1001,1 hPa 0,0 l/m 0 min 0 min 0 W/m 6,4 km/h (2 Bft) 98,11 %
09.05.2021 23:08 21,0 C 20,0 C 16,7 C 61 % 1001,1 hPa 0,0 l/m 0 min 0 min 0 W/m 12,9 km/h (3 Bft) 95,74 %
09.05.2021 23:10 21,0 C 20,0 C 16,7 C 61 % 1001,1 hPa 0,0 l/m 0 min 0 min 0 W/m 16,1 km/h (3 Bft) 97,87 %
09.05.2021 23:12 21,0 C 20,0 C 16,7 C 61 % 1001,2 hPa 0,0 l/m 0 min 0 min 0 W/m 12,9 km/h (3 Bft) 100,00 %
09.05.2021 23:14 21,0 C 20,0 C 17,3 C 61 % 1001,2 hPa 0,0 l/m 0 min 0 min 0 W/m 6,4 km/h (2 Bft) 95,74 %
09.05.2021 23:16 20,9 C 20,0 C 17,3 C 61 % 1001,3 hPa 0,0 l/m 0 min 0 min 0 W/m 12,9 km/h (3 Bft) 97,87 %
09.05.2021 23:18 20,9 C 20,0 C 16,7 C 61 % 1001,3 hPa 0,0 l/m 0 min 0 min 0 W/m 12,9 km/h (3 Bft) 100,00 %
09.05.2021 23:20 20,9 C 20,0 C 16,7 C 62 % 1001,3 hPa 0,0 l/m 0 min 0 min 0 W/m 9,7 km/h (2 Bft) 98,08 %
09.05.2021 23:22 20,9 C 20,0 C 16,7 C 61 % 1001,3 hPa 0,0 l/m 0 min 0 min 0 W/m 9,7 km/h (2 Bft) 100,00 %
09.05.2021 23:24 20,9 C 20,0 C 16,7 C 61 % 1001,3 hPa 0,0 l/m 0 min 0 min 0 W/m 6,4 km/h (2 Bft) 100,00 %
09.05.2021 23:26 20,9 C 20,0 C 16,7 C 62 % 1001,4 hPa 0,0 l/m 0 min 0 min 0 W/m 6,4 km/h (2 Bft) 100,00 %
09.05.2021 23:28 20,8 C 20,0 C 16,7 C 61 % 1001,4 hPa 0,0 l/m 0 min 0 min 0 W/m 12,9 km/h (3 Bft) 100,00 %
09.05.2021 23:30 20,8 C 20,0 C 16,7 C 61 % 1001,4 hPa 0,0 l/m 0 min 0 min 0 W/m 12,9 km/h (3 Bft) 100,00 %
09.05.2021 23:32 20,8 C 20,0 C 17,3 C 61 % 1001,4 hPa 0,0 l/m 0 min 0 min 0 W/m 12,9 km/h (3 Bft) 100,00 %
09.05.2021 23:34 20,8 C 20,0 C 16,7 C 61 % 1001,4 hPa 0,0 l/m 0 min 0 min 0 W/m 9,7 km/h (2 Bft) 100,00 %
09.05.2021 23:36 20,8 C 20,0 C 16,7 C 61 % 1001,4 hPa 0,0 l/m 0 min 0 min 0 W/m 6,4 km/h (2 Bft) 100,00 %
09.05.2021 23:38 20,8 C 20,0 C 16,7 C 61 % 1001,3 hPa 0,0 l/m 0 min 0 min 0 W/m 12,9 km/h (3 Bft) 100,00 %
09.05.2021 23:40 20,8 C 20,0 C 16,7 C 61 % 1001,4 hPa 0,0 l/m 0 min 0 min 0 W/m 9,7 km/h (2 Bft) 100,00 %
09.05.2021 23:42 20,8 C 20,0 C 16,7 C 61 % 1001,3 hPa 0,0 l/m 0 min 0 min 0 W/m 12,9 km/h (3 Bft) 100,00 %
09.05.2021 23:44 20,8 C 20,0 C 16,7 C 62 % 1001,4 hPa 0,0 l/m 0 min 0 min 0 W/m 12,9 km/h (3 Bft) 100,00 %
09.05.2021 23:46 20,8 C 20,0 C 16,7 C 61 % 1001,4 hPa 0,0 l/m 0 min 0 min 0 W/m 6,4 km/h (2 Bft) 100,00 %
09.05.2021 23:48 20,8 C 20,0 C 16,7 C 61 % 1001,4 hPa 0,0 l/m 0 min 0 min 0 W/m 12,9 km/h (3 Bft) 100,00 %
09.05.2021 23:50 20,7 C 19,4 C 16,7 C 61 % 1001,4 hPa 0,0 l/m 0 min 0 min 0 W/m 3,2 km/h (1 Bft) 100,00 %
09.05.2021 23:52 20,7 C 19,4 C 16,7 C 61 % 1001,4 hPa 0,0 l/m 0 min 0 min 0 W/m 6,4 km/h (2 Bft) 100,00 %
09.05.2021 23:54 20,7 C 19,4 C 16,7 C 62 % 1001,4 hPa 0,0 l/m 0 min 0 min 0 W/m 3,2 km/h (1 Bft) 100,00 %
09.05.2021 23:56 20,7 C 19,4 C 16,7 C 62 % 1001,5 hPa 0,0 l/m 0 min 0 min 0 W/m 6,4 km/h (2 Bft) 97,83 %
09.05.2021 23:58 20,6 C 19,4 C 16,7 C 62 % 1001,4 hPa 0,0 l/m 0 min 0 min 0 W/m 12,9 km/h (3 Bft) 100,00 %
_ Min-Zeit 04:22 05:18 04:10 16:38 17:48 - - - - 20:52 06:20
Minimum _ 11,0 C 10,0 C 8,4 C 46 % 1000,2 hPa - - - - 0,0 km/h (0 Bft) 61,11 %
_ Max-Zeit 16:34 16:32 13:36 03:28 00:00 00:00 12:08 00:00 12:38 15:14 00:04
Maximum _ 29,6 C 33,3 C 32,3 C 89 % 1008,9 hPa 0,0 l/m 4 min 0 min 937 W/m 45,1 km/h
O-SO (6 Bft)
100,00 %
Durchschnitt _ 20,0 C 20,2 C 17,3 C 68 % 1003,8 hPa #0,0 l/m #9:04 h #0 min. 415 W/m 16,8 km/h (3 Bft) 97,01 %
© 2021 W. Hausmann